PWSweather.com
Personal Weather Stations
Station Observations
AC5JC
Greenleaf Peninsula, Waco, Waco, TX 76710

Greenleaf Peninsula, WacoWaco, TX 76710

Lat: 31.565, Lon: -97.198

Elevation: 570

Station Type: Ambient WS-1400IP

http://ac5jc.dyndns.org

High Low Average
Temperature 78.6°F25.9°C 72.0°F22.2°C 76.3°F24.6°C
Dew Point 76.9°F24.9°C 67.3°F19.6°C 74.8°F23.8°C
Winds 10.8 mph 17.4 kmh Calm Calm 2.0 mph S3.2 kmh S
Wind Gusts 20.1 mph32.3 kmh -- 4.0 mph6.4 kmh
Humidity 97% 85% 95%
Pressure 29.96 in1014.6 mb 29.81 in1009.5 mb -
Precipitation 0.25 in6.4 mm - -
Hour Temp Dew Point Humidity Winds Wind Gusts Pressure Precip Precip Rate Daily Precip Total
12:00 AM 75.4°F24.1°C 73.9°F23.3°C 95% 7.8 mph SSE12.6 kmh SSE 12.5 mph20.1 kmh 29.91 in1012.9 mb 0.00 in0.0 mm 0.00 in0.0 mm 0.00 in0.0 mm
12:03 AM 75.4°F24.1°C 73.9°F23.3°C 95% 5.8 mph SE9.3 kmh SE 10.1 mph16.3 kmh 29.91 in1012.9 mb 0.00 in0.0 mm 0.00 in0.0 mm 0.00 in0.0 mm
12:06 AM 75.5°F24.2°C 74.0°F23.3°C 95% 6.2 mph SSE10.0 kmh SSE 10.1 mph16.3 kmh 29.91 in1012.9 mb 0.00 in0.0 mm 0.00 in0.0 mm 0.00 in0.0 mm
12:09 AM 75.6°F24.2°C 74.1°F23.4°C 95% 4.2 mph SSE6.8 kmh SSE 4.9 mph7.9 kmh 29.92 in1013.2 mb 0.00 in0.0 mm 0.00 in0.0 mm 0.00 in0.0 mm
12:12 AM 75.7°F24.3°C 74.2°F23.4°C 95% 3.6 mph ESE5.8 kmh ESE 4.9 mph7.9 kmh 29.92 in1013.2 mb 0.00 in0.0 mm 0.00 in0.0 mm 0.00 in0.0 mm
12:15 AM 75.7°F24.3°C 74.2°F23.4°C 95% 5.4 mph SE8.7 kmh SE 10.1 mph16.3 kmh 29.92 in1013.2 mb 0.00 in0.0 mm 0.00 in0.0 mm 0.00 in0.0 mm
12:18 AM 75.7°F24.3°C 74.2°F23.4°C 95% 5.9 mph SSE9.5 kmh SSE 10.1 mph16.3 kmh 29.92 in1013.2 mb 0.00 in0.0 mm 0.00 in0.0 mm 0.00 in0.0 mm
12:21 AM 75.7°F24.3°C 74.2°F23.4°C 95% 4.8 mph SE7.7 kmh SE 10.1 mph16.3 kmh 29.91 in1012.9 mb 0.00 in0.0 mm 0.00 in0.0 mm 0.00 in0.0 mm
12:24 AM 75.7°F24.3°C 74.2°F23.4°C 95% 6.3 mph SE10.1 kmh SE 10.1 mph16.3 kmh 29.91 in1012.9 mb 0.00 in0.0 mm 0.00 in0.0 mm 0.00 in0.0 mm
12:27 AM 75.7°F24.3°C 74.2°F23.4°C 95% 7.0 mph SE11.3 kmh SE 10.1 mph16.3 kmh 29.91 in1012.9 mb 0.00 in0.0 mm 0.00 in0.0 mm 0.00 in0.0 mm
12:30 AM 75.7°F24.3°C 74.2°F23.4°C 95% 6.5 mph SSE10.5 kmh SSE 12.5 mph20.1 kmh 29.91 in1012.9 mb 0.00 in0.0 mm 0.00 in0.0 mm 0.00 in0.0 mm
12:33 AM 75.9°F24.4°C 74.4°F23.6°C 95% 5.6 mph SE9.0 kmh SE 10.1 mph16.3 kmh 29.91 in1012.9 mb 0.00 in0.0 mm 0.00 in0.0 mm 0.00 in0.0 mm
12:36 AM 75.9°F24.4°C 74.4°F23.6°C 95% 5.1 mph SE8.2 kmh SE 10.1 mph16.3 kmh 29.91 in1012.9 mb 0.00 in0.0 mm 0.00 in0.0 mm 0.00 in0.0 mm
12:39 AM 75.7°F24.3°C 74.2°F23.4°C 95% 6.0 mph SE9.7 kmh SE 10.1 mph16.3 kmh 29.90 in1012.5 mb 0.00 in0.0 mm 0.00 in0.0 mm 0.00 in0.0 mm
12:42 AM 75.9°F24.4°C 74.4°F23.6°C 95% 8.3 mph SE13.4 kmh SE 15.0 mph24.1 kmh 29.90 in1012.5 mb 0.00 in0.0 mm 0.00 in0.0 mm 0.00 in0.0 mm
12:45 AM 75.9°F24.4°C 74.4°F23.6°C 95% 4.9 mph SSE7.9 kmh SSE 12.5 mph20.1 kmh 29.91 in1012.9 mb 0.00 in0.0 mm 0.00 in0.0 mm 0.00 in0.0 mm
12:48 AM 75.9°F24.4°C 74.4°F23.6°C 95% 9.0 mph SSE14.5 kmh SSE 15.0 mph24.1 kmh 29.91 in1012.9 mb 0.00 in0.0 mm 0.00 in0.0 mm 0.00 in0.0 mm
12:51 AM 75.9°F24.4°C 74.4°F23.6°C 95% 9.0 mph SSE14.5 kmh SSE 12.5 mph20.1 kmh 29.91 in1012.9 mb 0.00 in0.0 mm 0.00 in0.0 mm 0.00 in0.0 mm
12:54 AM 75.9°F24.4°C 74.4°F23.6°C 95% 6.2 mph SSE10.0 kmh SSE 10.1 mph16.3 kmh 29.90 in1012.5 mb 0.00 in0.0 mm 0.00 in0.0 mm 0.00 in0.0 mm
12:57 AM 75.9°F24.4°C 74.4°F23.6°C 95% 8.1 mph SSE13.0 kmh SSE 15.0 mph24.1 kmh 29.90 in1012.5 mb 0.00 in0.0 mm 0.00 in0.0 mm 0.00 in0.0 mm
01:00 AM 75.9°F24.4°C 74.4°F23.6°C 95% 5.4 mph S8.7 kmh S 12.5 mph20.1 kmh 29.90 in1012.5 mb 0.00 in0.0 mm 0.00 in0.0 mm 0.00 in0.0 mm
01:03 AM 75.9°F24.4°C 74.4°F23.6°C 95% 7.3 mph SSE11.7 kmh SSE 15.0 mph24.1 kmh 29.90 in1012.5 mb 0.00 in0.0 mm 0.00 in0.0 mm 0.00 in0.0 mm
01:06 AM 75.9°F24.4°C 74.4°F23.6°C 95% 6.7 mph SSE10.8 kmh SSE 10.1 mph16.3 kmh 29.90 in1012.5 mb 0.00 in0.0 mm 0.00 in0.0 mm 0.00 in0.0 mm
01:09 AM 76.0°F24.4°C 74.5°F23.6°C 95% 10.8 mph SSE17.4 kmh SSE 20.1 mph32.3 kmh 29.90 in1012.5 mb 0.00 in0.0 mm 0.00 in0.0 mm 0.00 in0.0 mm
01:12 AM 76.1°F24.5°C 74.6°F23.7°C 95% 4.0 mph E6.4 kmh E 4.9 mph7.9 kmh 29.90 in1012.5 mb 0.00 in0.0 mm 0.00 in0.0 mm 0.00 in0.0 mm
01:15 AM 75.9°F24.4°C 74.4°F23.6°C 95% 5.4 mph SE8.7 kmh SE 10.1 mph16.3 kmh 29.90 in1012.5 mb 0.00 in0.0 mm 0.00 in0.0 mm 0.00 in0.0 mm
01:18 AM 75.9°F24.4°C 74.4°F23.6°C 95% 6.5 mph SSE10.5 kmh SSE 15.0 mph24.1 kmh 29.90 in1012.5 mb 0.00 in0.0 mm 0.00 in0.0 mm 0.00 in0.0 mm
01:21 AM 75.9°F24.4°C 74.4°F23.6°C 95% 8.5 mph S13.7 kmh S 15.0 mph24.1 kmh 29.90 in1012.5 mb 0.00 in0.0 mm 0.00 in0.0 mm 0.00 in0.0 mm
01:24 AM 75.9°F24.4°C 74.4°F23.6°C 95% 6.6 mph SE10.6 kmh SE 10.1 mph16.3 kmh 29.90 in1012.5 mb 0.00 in0.0 mm 0.00 in0.0 mm 0.00 in0.0 mm
01:27 AM 75.9°F24.4°C 74.4°F23.6°C 95% 8.6 mph SSE13.8 kmh SSE 15.0 mph24.1 kmh 29.90 in1012.5 mb 0.00 in0.0 mm 0.00 in0.0 mm 0.00 in0.0 mm
01:30 AM 75.9°F24.4°C 74.4°F23.6°C 95% 5.3 mph S8.5 kmh S 12.5 mph20.1 kmh 29.90 in1012.5 mb 0.00 in0.0 mm 0.00 in0.0 mm 0.00 in0.0 mm
01:33 AM 75.9°F24.4°C 74.4°F23.6°C 95% 7.1 mph SSE11.4 kmh SSE 12.5 mph20.1 kmh 29.90 in1012.5 mb 0.00 in0.0 mm 0.00 in0.0 mm 0.00 in0.0 mm
01:36 AM 75.9°F24.4°C 74.4°F23.6°C 95% 9.3 mph SE15.0 kmh SE 15.0 mph24.1 kmh 29.90 in1012.5 mb 0.00 in0.0 mm 0.00 in0.0 mm 0.00 in0.0 mm
01:39 AM 75.9°F24.4°C 74.4°F23.6°C 95% 10.8 mph SE17.4 kmh SE 15.0 mph24.1 kmh 29.90 in1012.5 mb 0.00 in0.0 mm 0.00 in0.0 mm 0.00 in0.0 mm
01:42 AM 75.9°F24.4°C 74.4°F23.6°C 95% 7.8 mph SSE12.6 kmh SSE 12.5 mph20.1 kmh 29.90 in1012.5 mb 0.00 in0.0 mm 0.00 in0.0 mm 0.00 in0.0 mm
01:45 AM 75.9°F24.4°C 74.4°F23.6°C 95% 6.5 mph SE10.5 kmh SE 10.1 mph16.3 kmh 29.90 in1012.5 mb 0.00 in0.0 mm 0.00 in0.0 mm 0.00 in0.0 mm
01:48 AM 75.9°F24.4°C 74.4°F23.6°C 95% 7.9 mph S12.7 kmh S 12.5 mph20.1 kmh 29.90 in1012.5 mb 0.00 in0.0 mm 0.00 in0.0 mm 0.00 in0.0 mm
01:51 AM 75.9°F24.4°C 74.4°F23.6°C 95% 7.9 mph SE12.7 kmh SE 12.5 mph20.1 kmh 29.90 in1012.5 mb 0.00 in0.0 mm 0.00 in0.0 mm 0.00 in0.0 mm
01:54 AM 75.9°F24.4°C 74.4°F23.6°C 95% 8.9 mph S14.3 kmh S 20.1 mph32.3 kmh 29.90 in1012.5 mb 0.00 in0.0 mm 0.00 in0.0 mm 0.00 in0.0 mm
01:57 AM 75.9°F24.4°C 74.4°F23.6°C 95% 7.8 mph SSE12.6 kmh SSE 15.0 mph24.1 kmh 29.90 in1012.5 mb 0.00 in0.0 mm 0.00 in0.0 mm 0.00 in0.0 mm
02:00 AM 75.9°F24.4°C 74.4°F23.6°C 95% 8.0 mph SSE12.9 kmh SSE 12.5 mph20.1 kmh 29.90 in1012.5 mb 0.00 in0.0 mm 0.00 in0.0 mm 0.00 in0.0 mm
02:03 AM 75.9°F24.4°C 74.4°F23.6°C 95% 8.6 mph S13.8 kmh S 12.5 mph20.1 kmh 29.90 in1012.5 mb 0.00 in0.0 mm 0.00 in0.0 mm 0.00 in0.0 mm
02:06 AM 75.9°F24.4°C 74.4°F23.6°C 95% 4.7 mph SSE7.6 kmh SSE 12.5 mph20.1 kmh 29.90 in1012.5 mb 0.00 in0.0 mm 0.00 in0.0 mm 0.00 in0.0 mm
02:09 AM 75.9°F24.4°C 74.1°F23.4°C 94% 5.2 mph SSE8.4 kmh SSE 12.5 mph20.1 kmh 29.89 in1012.2 mb 0.00 in0.0 mm 0.00 in0.0 mm 0.00 in0.0 mm
02:12 AM 75.9°F24.4°C 74.0°F23.3°C 94% 4.2 mph SE6.8 kmh SE 10.1 mph16.3 kmh 29.89 in1012.2 mb 0.00 in0.0 mm 0.00 in0.0 mm 0.00 in0.0 mm
02:15 AM 75.9°F24.4°C 74.0°F23.3°C 94% 2.4 mph SE3.9 kmh SE 4.9 mph7.9 kmh 29.90 in1012.5 mb 0.00 in0.0 mm 0.00 in0.0 mm 0.00 in0.0 mm
02:18 AM 75.9°F24.4°C 74.0°F23.3°C 94% 7.9 mph SSE12.7 kmh SSE 12.5 mph20.1 kmh 29.90 in1012.5 mb 0.00 in0.0 mm 0.00 in0.0 mm 0.00 in0.0 mm
02:21 AM 75.9°F24.4°C 74.0°F23.3°C 94% 6.4 mph S10.3 kmh S 10.1 mph16.3 kmh 29.89 in1012.2 mb 0.00 in0.0 mm 0.00 in0.0 mm 0.00 in0.0 mm
02:24 AM 75.9°F24.4°C 74.0°F23.3°C 94% 4.3 mph SSE6.9 kmh SSE 7.6 mph12.2 kmh 29.90 in1012.5 mb 0.00 in0.0 mm 0.00 in0.0 mm 0.00 in0.0 mm
02:27 AM 75.9°F24.4°C 74.0°F23.3°C 94% 6.8 mph SE10.9 kmh SE 10.1 mph16.3 kmh 29.89 in1012.2 mb 0.00 in0.0 mm 0.00 in0.0 mm 0.00 in0.0 mm
02:30 AM 75.9°F24.4°C 74.0°F23.3°C 94% 8.0 mph SSE12.9 kmh SSE 12.5 mph20.1 kmh 29.90 in1012.5 mb 0.00 in0.0 mm 0.00 in0.0 mm 0.00 in0.0 mm
02:33 AM 75.9°F24.4°C 74.0°F23.3°C 94% 4.7 mph SSE7.6 kmh SSE 7.6 mph12.2 kmh 29.90 in1012.5 mb 0.00 in0.0 mm 0.00 in0.0 mm 0.00 in0.0 mm
02:36 AM 75.9°F24.4°C 74.0°F23.3°C 94% 5.3 mph SSE8.5 kmh SSE 7.6 mph12.2 kmh 29.90 in1012.5 mb 0.00 in0.0 mm 0.00 in0.0 mm 0.00 in0.0 mm
02:39 AM 75.9°F24.4°C 74.0°F23.3°C 94% 3.5 mph S5.6 kmh S 7.6 mph12.2 kmh 29.89 in1012.2 mb 0.00 in0.0 mm 0.00 in0.0 mm 0.00 in0.0 mm
02:42 AM 75.9°F24.4°C 74.0°F23.3°C 94% 8.5 mph SSE13.7 kmh SSE 12.5 mph20.1 kmh 29.89 in1012.2 mb 0.00 in0.0 mm 0.00 in0.0 mm 0.00 in0.0 mm
02:45 AM 75.9°F24.4°C 74.0°F23.3°C 94% 5.7 mph SSE9.2 kmh SSE 7.6 mph12.2 kmh 29.90 in1012.5 mb 0.00 in0.0 mm 0.00 in0.0 mm 0.00 in0.0 mm
02:48 AM 75.9°F24.4°C 74.0°F23.3°C 94% 4.8 mph S7.7 kmh S 7.6 mph12.2 kmh 29.90 in1012.5 mb 0.00 in0.0 mm 0.00 in0.0 mm 0.00 in0.0 mm
02:51 AM 75.9°F24.4°C 74.0°F23.3°C 94% 6.2 mph S10.0 kmh S 10.1 mph16.3 kmh 29.90 in1012.5 mb 0.00 in0.0 mm 0.00 in0.0 mm 0.00 in0.0 mm
02:54 AM 75.9°F24.4°C 74.0°F23.3°C 94% 3.2 mph SSE5.1 kmh SSE 4.9 mph7.9 kmh 29.90 in1012.5 mb 0.00 in0.0 mm 0.00 in0.0 mm 0.00 in0.0 mm
02:57 AM 75.9°F24.4°C 74.0°F23.3°C 94% 3.2 mph SSE5.1 kmh SSE 10.1 mph16.3 kmh 29.90 in1012.5 mb 0.00 in0.0 mm 0.00 in0.0 mm 0.00 in0.0 mm
03:00 AM 75.9°F24.4°C 74.0°F23.3°C 94% 5.7 mph S9.2 kmh S 10.1 mph16.3 kmh 29.90 in1012.5 mb 0.00 in0.0 mm 0.00 in0.0 mm 0.00 in0.0 mm
03:03 AM 75.9°F24.4°C 74.0°F23.3°C 94% 2.3 mph S3.7 kmh S 4.9 mph7.9 kmh 29.90 in1012.5 mb 0.00 in0.0 mm 0.00 in0.0 mm 0.00 in0.0 mm
03:06 AM 75.9°F24.4°C 74.0°F23.3°C 94% 3.4 mph SSE5.5 kmh SSE 7.6 mph12.2 kmh 29.90 in1012.5 mb 0.00 in0.0 mm 0.00 in0.0 mm 0.00 in0.0 mm
03:09 AM 75.9°F24.4°C 74.0°F23.3°C 94% 4.9 mph S7.9 kmh S 10.1 mph16.3 kmh 29.90 in1012.5 mb 0.00 in0.0 mm 0.00 in0.0 mm 0.00 in0.0 mm
03:12 AM 75.9°F24.4°C 74.0°F23.3°C 94% 4.8 mph SSE7.7 kmh SSE 7.6 mph12.2 kmh 29.90 in1012.5 mb 0.00 in0.0 mm 0.00 in0.0 mm 0.00 in0.0 mm
03:15 AM 75.9°F24.4°C 74.0°F23.3°C 94% 3.9 mph S6.3 kmh S 7.6 mph12.2 kmh 29.89 in1012.2 mb 0.00 in0.0 mm 0.00 in0.0 mm 0.00 in0.0 mm
03:18 AM 75.9°F24.4°C 74.0°F23.3°C 94% 3.4 mph S5.5 kmh S 7.6 mph12.2 kmh 29.89 in1012.2 mb 0.00 in0.0 mm 0.00 in0.0 mm 0.00 in0.0 mm
03:21 AM 75.9°F24.4°C 74.0°F23.3°C 94% 4.5 mph SSE7.2 kmh SSE 10.1 mph16.3 kmh 29.90 in1012.5 mb 0.00 in0.0 mm 0.00 in0.0 mm 0.00 in0.0 mm
03:24 AM 75.9°F24.4°C 73.7°F23.2°C 93% 3.5 mph SSE5.6 kmh SSE 7.6 mph12.2 kmh 29.89 in1012.2 mb 0.00 in0.0 mm 0.00 in0.0 mm 0.00 in0.0 mm
03:27 AM 75.9°F24.4°C 73.7°F23.2°C 93% 3.5 mph SE5.6 kmh SE 7.6 mph12.2 kmh 29.89 in1012.2 mb 0.00 in0.0 mm 0.00 in0.0 mm 0.00 in0.0 mm
03:30 AM 75.9°F24.4°C 73.7°F23.2°C 93% 6.4 mph S10.3 kmh S 10.1 mph16.3 kmh 29.89 in1012.2 mb 0.00 in0.0 mm 0.00 in0.0 mm 0.00 in0.0 mm
03:33 AM 75.9°F24.4°C 73.7°F23.2°C 93% 4.6 mph SE7.4 kmh SE 10.1 mph16.3 kmh 29.89 in1012.2 mb 0.00 in0.0 mm 0.00 in0.0 mm 0.00 in0.0 mm
03:36 AM 75.9°F24.4°C 73.7°F23.2°C 93% 3.4 mph S5.5 kmh S 4.9 mph7.9 kmh 29.89 in1012.2 mb 0.00 in0.0 mm 0.00 in0.0 mm 0.00 in0.0 mm
03:39 AM 75.9°F24.4°C 73.7°F23.2°C 93% 5.8 mph SSE9.3 kmh SSE 10.1 mph16.3 kmh 29.89 in1012.2 mb 0.00 in0.0 mm 0.00 in0.0 mm 0.00 in0.0 mm
03:42 AM 75.9°F24.4°C 73.7°F23.2°C 93% 4.8 mph S7.7 kmh S 7.6 mph12.2 kmh 29.90 in1012.5 mb 0.00 in0.0 mm 0.00 in0.0 mm 0.00 in0.0 mm
03:45 AM 75.9°F24.4°C 73.7°F23.2°C 93% 3.8 mph S6.1 kmh S 4.9 mph7.9 kmh 29.89 in1012.2 mb 0.00 in0.0 mm 0.00 in0.0 mm 0.00 in0.0 mm
03:48 AM 75.9°F24.4°C 73.6°F23.1°C 93% 1.2 mph S1.9 kmh S 2.5 mph4.0 kmh 29.90 in1012.5 mb 0.00 in0.0 mm 0.00 in0.0 mm 0.00 in0.0 mm
03:51 AM 75.9°F24.4°C 73.4°F23.0°C 92% 6.4 mph SSE10.3 kmh SSE 10.1 mph16.3 kmh 29.89 in1012.2 mb 0.00 in0.0 mm 0.00 in0.0 mm 0.00 in0.0 mm
03:54 AM 75.9°F24.4°C 73.4°F23.0°C 92% 3.5 mph SSE5.6 kmh SSE 7.6 mph12.2 kmh 29.90 in1012.5 mb 0.00 in0.0 mm 0.00 in0.0 mm 0.00 in0.0 mm
03:57 AM 75.9°F24.4°C 73.4°F23.0°C 92% 1.8 mph S2.9 kmh S 4.9 mph7.9 kmh 29.90 in1012.5 mb 0.00 in0.0 mm 0.00 in0.0 mm 0.00 in0.0 mm
04:00 AM 75.9°F24.4°C 73.4°F23.0°C 92% 7.9 mph SSE12.7 kmh SSE 12.5 mph20.1 kmh 29.89 in1012.2 mb 0.00 in0.0 mm 0.00 in0.0 mm 0.00 in0.0 mm
04:03 AM 75.9°F24.4°C 73.4°F23.0°C 92% 3.3 mph S5.3 kmh S 7.6 mph12.2 kmh 29.89 in1012.2 mb 0.00 in0.0 mm 0.00 in0.0 mm 0.00 in0.0 mm
04:06 AM 75.9°F24.4°C 73.4°F23.0°C 92% 6.3 mph SSE10.1 kmh SSE 10.1 mph16.3 kmh 29.89 in1012.2 mb 0.00 in0.0 mm 0.00 in0.0 mm 0.00 in0.0 mm
04:09 AM 75.9°F24.4°C 73.4°F23.0°C 92% 6.4 mph S10.3 kmh S 10.1 mph16.3 kmh 29.90 in1012.5 mb 0.00 in0.0 mm 0.00 in0.0 mm 0.00 in0.0 mm
04:12 AM 75.9°F24.4°C 73.4°F23.0°C 92% 7.1 mph S11.4 kmh S 12.5 mph20.1 kmh 29.89 in1012.2 mb 0.00 in0.0 mm 0.00 in0.0 mm 0.00 in0.0 mm
04:15 AM 75.9°F24.4°C 73.4°F23.0°C 92% 5.5 mph S8.9 kmh S 10.1 mph16.3 kmh 29.90 in1012.5 mb 0.00 in0.0 mm 0.00 in0.0 mm 0.00 in0.0 mm
04:18 AM 75.9°F24.4°C 73.4°F23.0°C 92% 5.8 mph SE9.3 kmh SE 15.0 mph24.1 kmh 29.90 in1012.5 mb 0.00 in0.0 mm 0.00 in0.0 mm 0.00 in0.0 mm
04:21 AM 75.9°F24.4°C 73.4°F23.0°C 92% 4.2 mph S6.8 kmh S 10.1 mph16.3 kmh 29.90 in1012.5 mb 0.00 in0.0 mm 0.00 in0.0 mm 0.00 in0.0 mm
04:24 AM 75.9°F24.4°C 73.4°F23.0°C 92% 1.7 mph S2.7 kmh S 4.9 mph7.9 kmh 29.90 in1012.5 mb 0.00 in0.0 mm 0.00 in0.0 mm 0.00 in0.0 mm
04:27 AM 75.9°F24.4°C 73.4°F23.0°C 92% 6.7 mph S10.8 kmh S 10.1 mph16.3 kmh 29.90 in1012.5 mb 0.00 in0.0 mm 0.00 in0.0 mm 0.00 in0.0 mm
04:30 AM 75.9°F24.4°C 73.4°F23.0°C 92% 7.0 mph SSE11.3 kmh SSE 10.1 mph16.3 kmh 29.90 in1012.5 mb 0.00 in0.0 mm 0.00 in0.0 mm 0.00 in0.0 mm
04:33 AM 75.9°F24.4°C 73.4°F23.0°C 92% 5.8 mph S9.3 kmh S 12.5 mph20.1 kmh 29.90 in1012.5 mb 0.00 in0.0 mm 0.00 in0.0 mm 0.00 in0.0 mm
04:36 AM 75.9°F24.4°C 73.4°F23.0°C 92% 7.0 mph SSE11.3 kmh SSE 10.1 mph16.3 kmh 29.90 in1012.5 mb 0.00 in0.0 mm 0.00 in0.0 mm 0.00 in0.0 mm
04:39 AM 75.9°F24.4°C 73.4°F23.0°C 92% 4.6 mph S7.4 kmh S 7.6 mph12.2 kmh 29.90 in1012.5 mb 0.00 in0.0 mm 0.00 in0.0 mm 0.00 in0.0 mm
04:42 AM 75.9°F24.4°C 73.4°F23.0°C 92% 4.5 mph S7.2 kmh S 7.6 mph12.2 kmh 29.90 in1012.5 mb 0.00 in0.0 mm 0.00 in0.0 mm 0.00 in0.0 mm
04:45 AM 75.9°F24.4°C 73.4°F23.0°C 92% 3.3 mph S5.3 kmh S 4.9 mph7.9 kmh 29.90 in1012.5 mb 0.00 in0.0 mm 0.00 in0.0 mm 0.00 in0.0 mm
04:48 AM 75.9°F24.4°C 73.4°F23.0°C 92% 3.6 mph S5.8 kmh S 4.9 mph7.9 kmh 29.90 in1012.5 mb 0.00 in0.0 mm 0.00 in0.0 mm 0.00 in0.0 mm
04:51 AM 75.8°F24.3°C 73.3°F22.9°C 92% 4.8 mph SSE7.7 kmh SSE 12.5 mph20.1 kmh 29.90 in1012.5 mb 0.00 in0.0 mm 0.00 in0.0 mm 0.00 in0.0 mm
04:54 AM 75.7°F24.3°C 73.2°F22.9°C 92% 6.5 mph SSE10.5 kmh SSE 10.1 mph16.3 kmh 29.89 in1012.2 mb 0.00 in0.0 mm 0.00 in0.0 mm 0.00 in0.0 mm
04:57 AM 75.7°F24.3°C 73.2°F22.9°C 92% 4.9 mph SSE7.9 kmh SSE 7.6 mph12.2 kmh 29.90 in1012.5 mb 0.00 in0.0 mm 0.00 in0.0 mm 0.00 in0.0 mm
05:00 AM 75.7°F24.3°C 73.4°F23.0°C 92% 4.3 mph S6.9 kmh S 10.1 mph16.3 kmh 29.90 in1012.5 mb 0.00 in0.0 mm 0.00 in0.0 mm 0.00 in0.0 mm
05:03 AM 75.7°F24.3°C 73.5°F23.1°C 93% 3.3 mph S5.3 kmh S 4.9 mph7.9 kmh 29.90 in1012.5 mb 0.00 in0.0 mm 0.00 in0.0 mm 0.00 in0.0 mm
05:06 AM 75.6°F24.2°C 73.4°F23.0°C 93% 3.1 mph S5.0 kmh S 7.6 mph12.2 kmh 29.90 in1012.5 mb 0.00 in0.0 mm 0.00 in0.0 mm 0.00 in0.0 mm
05:09 AM 75.6°F24.2°C 73.4°F23.0°C 93% 4.7 mph SSE7.6 kmh SSE 10.1 mph16.3 kmh 29.90 in1012.5 mb 0.00 in0.0 mm 0.00 in0.0 mm 0.00 in0.0 mm
05:12 AM 75.6°F24.2°C 73.4°F23.0°C 93% 4.6 mph SE7.4 kmh SE 4.9 mph7.9 kmh 29.90 in1012.5 mb 0.00 in0.0 mm 0.00 in0.0 mm 0.00 in0.0 mm
05:15 AM 75.6°F24.2°C 73.4°F23.0°C 93% 4.8 mph SE7.7 kmh SE 10.1 mph16.3 kmh 29.90 in1012.5 mb 0.00 in0.0 mm 0.00 in0.0 mm 0.00 in0.0 mm
05:18 AM 75.6°F24.2°C 73.4°F23.0°C 93% 2.2 mph S3.5 kmh S 7.6 mph12.2 kmh 29.91 in1012.9 mb 0.00 in0.0 mm 0.00 in0.0 mm 0.00 in0.0 mm
05:21 AM 75.6°F24.2°C 73.4°F23.0°C 93% 2.8 mph S4.5 kmh S 10.1 mph16.3 kmh 29.91 in1012.9 mb 0.00 in0.0 mm 0.00 in0.0 mm 0.00 in0.0 mm
05:24 AM 75.6°F24.2°C 73.4°F23.0°C 93% 3.4 mph S5.5 kmh S 7.6 mph12.2 kmh 29.90 in1012.5 mb 0.00 in0.0 mm 0.00 in0.0 mm 0.00 in0.0 mm
05:27 AM 75.6°F24.2°C 73.4°F23.0°C 93% 3.6 mph S5.8 kmh S 7.6 mph12.2 kmh 29.90 in1012.5 mb 0.00 in0.0 mm 0.00 in0.0 mm 0.00 in0.0 mm
05:30 AM 75.6°F24.2°C 73.4°F23.0°C 93% 3.0 mph S4.8 kmh S 7.6 mph12.2 kmh 29.90 in1012.5 mb 0.00 in0.0 mm 0.00 in0.0 mm 0.00 in0.0 mm
05:33 AM 75.6°F24.2°C 73.7°F23.2°C 94% 0.5 mph S0.8 kmh S 2.5 mph4.0 kmh 29.91 in1012.9 mb 0.00 in0.0 mm 0.00 in0.0 mm 0.00 in0.0 mm
05:36 AM 75.5°F24.2°C 73.7°F23.2°C 94% 2.3 mph SSE3.7 kmh SSE 7.6 mph12.2 kmh 29.91 in1012.9 mb 0.00 in0.0 mm 0.00 in0.0 mm 0.00 in0.0 mm
05:39 AM 75.5°F24.2°C 73.6°F23.1°C 94% 4.1 mph SE6.6 kmh SE 7.6 mph12.2 kmh 29.91 in1012.9 mb 0.00 in0.0 mm 0.00 in0.0 mm 0.00 in0.0 mm
05:42 AM 75.6°F24.2°C 73.7°F23.2°C 94% 1.5 mph S2.4 kmh S 2.5 mph4.0 kmh 29.91 in1012.9 mb 0.00 in0.0 mm 0.00 in0.0 mm 0.00 in0.0 mm
05:45 AM 75.5°F24.2°C 73.7°F23.2°C 94% 2.2 mph S3.5 kmh S 7.6 mph12.2 kmh 29.91 in1012.9 mb 0.00 in0.0 mm 0.00 in0.0 mm 0.00 in0.0 mm
05:48 AM 75.5°F24.2°C 73.6°F23.1°C 94% 0.6 mph SW1.0 kmh SW 2.5 mph4.0 kmh 29.91 in1012.9 mb 0.00 in0.0 mm 0.00 in0.0 mm 0.00 in0.0 mm
05:51 AM 75.5°F24.2°C 73.6°F23.1°C 94% 5.5 mph SSE8.9 kmh SSE 12.5 mph20.1 kmh 29.91 in1012.9 mb 0.00 in0.0 mm 0.00 in0.0 mm 0.00 in0.0 mm
05:54 AM 75.6°F24.2°C 73.7°F23.2°C 94% 4.2 mph S6.8 kmh S 12.5 mph20.1 kmh 29.91 in1012.9 mb 0.00 in0.0 mm 0.00 in0.0 mm 0.00 in0.0 mm
05:57 AM 75.7°F24.3°C 73.8°F23.2°C 94% 1.9 mph S3.1 kmh S 4.9 mph7.9 kmh 29.91 in1012.9 mb 0.00 in0.0 mm 0.00 in0.0 mm 0.00 in0.0 mm
06:00 AM 75.6°F24.2°C 73.7°F23.2°C 94% 1.8 mph S2.9 kmh S 2.5 mph4.0 kmh 29.90 in1012.5 mb 0.00 in0.0 mm 0.00 in0.0 mm 0.00 in0.0 mm
06:03 AM 75.6°F24.2°C 73.7°F23.2°C 94% 3.9 mph S6.3 kmh S 7.6 mph12.2 kmh 29.91 in1012.9 mb 0.00 in0.0 mm 0.00 in0.0 mm 0.00 in0.0 mm
06:06 AM 75.6°F24.2°C 73.7°F23.2°C 94% 2.8 mph S4.5 kmh S 4.9 mph7.9 kmh 29.91 in1012.9 mb 0.00 in0.0 mm 0.00 in0.0 mm 0.00 in0.0 mm
06:09 AM 75.6°F24.2°C 73.7°F23.2°C 94% 1.6 mph SE2.6 kmh SE 4.9 mph7.9 kmh 29.91 in1012.9 mb 0.00 in0.0 mm 0.00 in0.0 mm 0.00 in0.0 mm
06:12 AM 75.6°F24.2°C 73.7°F23.2°C 94% 1.6 mph S2.6 kmh S 4.9 mph7.9 kmh 29.91 in1012.9 mb 0.00 in0.0 mm 0.00 in0.0 mm 0.00 in0.0 mm
06:15 AM 75.6°F24.2°C 73.7°F23.2°C 94% 3.0 mph S4.8 kmh S 4.9 mph7.9 kmh 29.91 in1012.9 mb 0.00 in0.0 mm 0.00 in0.0 mm 0.00 in0.0 mm
06:18 AM 75.6°F24.2°C 73.7°F23.2°C 94% 1.8 mph S2.9 kmh S 2.5 mph4.0 kmh 29.91 in1012.9 mb 0.00 in0.0 mm 0.00 in0.0 mm 0.00 in0.0 mm
06:21 AM 75.6°F24.2°C 73.7°F23.2°C 94% 1.5 mph S2.4 kmh S 4.9 mph7.9 kmh 29.91 in1012.9 mb 0.00 in0.0 mm 0.00 in0.0 mm 0.00 in0.0 mm
06:24 AM 75.6°F24.2°C 73.7°F23.2°C 94% 2.1 mph S3.4 kmh S 7.6 mph12.2 kmh 29.91 in1012.9 mb 0.00 in0.0 mm 0.00 in0.0 mm 0.00 in0.0 mm
06:27 AM 75.7°F24.3°C 73.8°F23.2°C 94% 1.8 mph SSE2.9 kmh SSE 4.9 mph7.9 kmh 29.92 in1013.2 mb 0.01 in0.3 mm 0.20 in5.1 mm 0.01 in0.3 mm
06:30 AM 75.7°F24.3°C 73.8°F23.2°C 94% 1.7 mph SSE2.7 kmh SSE 2.5 mph4.0 kmh 29.92 in1013.2 mb 0.01 in0.3 mm 0.00 in0.0 mm 0.01 in0.3 mm
06:33 AM 75.6°F24.2°C 73.7°F23.2°C 94% 2.6 mph S4.2 kmh S 4.9 mph7.9 kmh 29.91 in1012.9 mb 0.01 in0.3 mm 0.00 in0.0 mm 0.01 in0.3 mm
06:36 AM 75.6°F24.2°C 73.7°F23.2°C 94% 1.4 mph S2.3 kmh S 4.9 mph7.9 kmh 29.91 in1012.9 mb 0.03 in0.8 mm 0.40 in10.2 mm 0.03 in0.8 mm
06:39 AM 75.6°F24.2°C 74.1°F23.4°C 95% 1.2 mph S1.9 kmh S 4.9 mph7.9 kmh 29.91 in1012.9 mb 0.03 in0.8 mm 0.00 in0.0 mm 0.03 in0.8 mm
06:42 AM 75.6°F24.2°C 74.1°F23.4°C 95% 2.2 mph SSE3.5 kmh SSE 4.9 mph7.9 kmh 29.92 in1013.2 mb 0.03 in0.8 mm 0.00 in0.0 mm 0.03 in0.8 mm
06:45 AM 75.6°F24.2°C 74.1°F23.4°C 95% 1.8 mph S2.9 kmh S 4.9 mph7.9 kmh 29.91 in1012.9 mb 0.03 in0.8 mm 0.00 in0.0 mm 0.03 in0.8 mm
06:48 AM 75.6°F24.2°C 74.1°F23.4°C 95% 0.7 mph S1.1 kmh S 2.5 mph4.0 kmh 29.91 in1012.9 mb 0.04 in1.0 mm 0.20 in5.1 mm 0.04 in1.0 mm
06:51 AM 75.6°F24.2°C 74.1°F23.4°C 95% 2.6 mph S4.2 kmh S 4.9 mph7.9 kmh 29.91 in1012.9 mb 0.05 in1.3 mm 0.20 in5.1 mm 0.05 in1.3 mm
06:54 AM 75.6°F24.2°C 74.1°F23.4°C 95% 1.2 mph S1.9 kmh S 4.9 mph7.9 kmh 29.91 in1012.9 mb 0.05 in1.3 mm 0.00 in0.0 mm 0.05 in1.3 mm
06:57 AM 75.6°F24.2°C 74.1°F23.4°C 95% 1.4 mph S2.3 kmh S 2.5 mph4.0 kmh 29.91 in1012.9 mb 0.06 in1.5 mm 0.20 in5.1 mm 0.06 in1.5 mm
07:00 AM 75.6°F24.2°C 74.1°F23.4°C 95% 0.5 mph S0.8 kmh S 2.5 mph4.0 kmh 29.91 in1012.9 mb 0.06 in1.5 mm 0.00 in0.0 mm 0.06 in1.5 mm
07:03 AM 75.6°F24.2°C 74.2°F23.4°C 96% Calm Calm -- 29.91 in1012.9 mb 0.07 in1.8 mm 0.20 in5.1 mm 0.07 in1.8 mm
07:06 AM 75.6°F24.2°C 74.4°F23.6°C 96% 1.5 mph SSW2.4 kmh SSW 2.5 mph4.0 kmh 29.92 in1013.2 mb 0.07 in1.8 mm 0.00 in0.0 mm 0.07 in1.8 mm
07:09 AM 75.6°F24.2°C 74.4°F23.6°C 96% 7.0 mph S11.3 kmh S 12.5 mph20.1 kmh 29.91 in1012.9 mb 0.07 in1.8 mm 0.00 in0.0 mm 0.07 in1.8 mm
07:12 AM 75.6°F24.2°C 74.4°F23.6°C 96% 8.3 mph SSE13.4 kmh SSE 10.1 mph16.3 kmh 29.90 in1012.5 mb 0.07 in1.8 mm 0.00 in0.0 mm 0.07 in1.8 mm
07:15 AM 75.6°F24.2°C 74.4°F23.6°C 96% 4.2 mph S6.8 kmh S 10.1 mph16.3 kmh 29.90 in1012.5 mb 0.09 in2.3 mm 0.40 in10.2 mm 0.09 in2.3 mm
07:18 AM 75.6°F24.2°C 74.4°F23.6°C 96% 5.9 mph S9.5 kmh S 10.1 mph16.3 kmh 29.89 in1012.2 mb 0.09 in2.3 mm 0.00 in0.0 mm 0.09 in2.3 mm
07:21 AM 75.6°F24.2°C 74.4°F23.6°C 96% 7.7 mph SSE12.4 kmh SSE 12.5 mph20.1 kmh 29.90 in1012.5 mb 0.09 in2.3 mm 0.00 in0.0 mm 0.09 in2.3 mm
07:24 AM 75.7°F24.3°C 74.5°F23.6°C 96% 7.1 mph SSE11.4 kmh SSE 12.5 mph20.1 kmh 29.90 in1012.5 mb 0.09 in2.3 mm 0.00 in0.0 mm 0.09 in2.3 mm
07:27 AM 75.7°F24.3°C 74.5°F23.6°C 96% 3.8 mph SSE6.1 kmh SSE 7.6 mph12.2 kmh 29.90 in1012.5 mb 0.08 in2.0 mm 0.00 in0.0 mm 0.09 in2.3 mm
07:30 AM 75.7°F24.3°C 74.5°F23.6°C 96% 5.8 mph SSE9.3 kmh SSE 7.6 mph12.2 kmh 29.90 in1012.5 mb 0.08 in2.0 mm 0.00 in0.0 mm 0.09 in2.3 mm
07:33 AM 75.7°F24.3°C 74.5°F23.6°C 96% 6.6 mph S10.6 kmh S 12.5 mph20.1 kmh 29.90 in1012.5 mb 0.08 in2.0 mm 0.00 in0.0 mm 0.09 in2.3 mm
07:36 AM 75.8°F24.3°C 74.6°F23.7°C 96% 3.8 mph SSE6.1 kmh SSE 7.6 mph12.2 kmh 29.90 in1012.5 mb 0.06 in1.5 mm 0.00 in0.0 mm 0.09 in2.3 mm
07:39 AM 75.9°F24.4°C 74.7°F23.7°C 96% 5.2 mph SSE8.4 kmh SSE 7.6 mph12.2 kmh 29.90 in1012.5 mb 0.06 in1.5 mm 0.00 in0.0 mm 0.09 in2.3 mm
07:42 AM 75.9°F24.4°C 74.8°F23.8°C 96% 5.6 mph S9.0 kmh S 10.1 mph16.3 kmh 29.90 in1012.5 mb 0.06 in1.5 mm 0.00 in0.0 mm 0.09 in2.3 mm
07:45 AM 75.9°F24.4°C 75.0°F23.9°C 97% 3.1 mph S5.0 kmh S 4.9 mph7.9 kmh 29.90 in1012.5 mb 0.06 in1.5 mm 0.00 in0.0 mm 0.09 in2.3 mm
07:48 AM 76.0°F24.4°C 75.0°F23.9°C 97% 1.1 mph SSW1.8 kmh SSW 4.9 mph7.9 kmh 29.90 in1012.5 mb 0.05 in1.3 mm 0.00 in0.0 mm 0.09 in2.3 mm
07:51 AM 76.2°F24.6°C 75.3°F24.1°C 97% 2.1 mph SSE3.4 kmh SSE 7.6 mph12.2 kmh 29.90 in1012.5 mb 0.04 in1.0 mm 0.00 in0.0 mm 0.09 in2.3 mm
07:54 AM 76.3°F24.6°C 75.4°F24.1°C 97% 0.9 mph SE1.4 kmh SE 2.5 mph4.0 kmh 29.90 in1012.5 mb 0.04 in1.0 mm 0.00 in0.0 mm 0.09 in2.3 mm
07:57 AM 76.4°F24.7°C 75.4°F24.1°C 97% 2.3 mph SE3.7 kmh SE 10.1 mph16.3 kmh 29.90 in1012.5 mb 0.03 in0.8 mm 0.00 in0.0 mm 0.09 in2.3 mm
08:00 AM 76.5°F24.7°C 75.6°F24.2°C 97% 4.3 mph S6.9 kmh S 10.1 mph16.3 kmh 29.90 in1012.5 mb 0.03 in0.8 mm 0.00 in0.0 mm 0.09 in2.3 mm
08:03 AM 76.5°F24.7°C 75.6°F24.2°C 97% 1.1 mph S1.8 kmh S 4.9 mph7.9 kmh 29.90 in1012.5 mb 0.02 in0.5 mm 0.00 in0.0 mm 0.09 in2.3 mm
08:06 AM 76.5°F24.7°C 75.6°F24.2°C 97% 5.9 mph SSE9.5 kmh SSE 7.6 mph12.2 kmh 29.91 in1012.9 mb 0.02 in0.5 mm 0.00 in0.0 mm 0.09 in2.3 mm
08:09 AM 76.5°F24.7°C 75.6°F24.2°C 97% 3.2 mph S5.1 kmh S 7.6 mph12.2 kmh 29.90 in1012.5 mb 0.02 in0.5 mm 0.00 in0.0 mm 0.09 in2.3 mm
08:12 AM 76.5°F24.7°C 75.6°F24.2°C 97% 5.3 mph S8.5 kmh S 7.6 mph12.2 kmh 29.90 in1012.5 mb 0.02 in0.5 mm 0.00 in0.0 mm 0.09 in2.3 mm
08:15 AM 76.5°F24.7°C 75.6°F24.2°C 97% 6.9 mph SSE11.1 kmh SSE 10.1 mph16.3 kmh 29.91 in1012.9 mb 0.00 in0.0 mm 0.00 in0.0 mm 0.09 in2.3 mm
08:18 AM 76.5°F24.7°C 75.6°F24.2°C 97% 3.3 mph SSE5.3 kmh SSE 7.6 mph12.2 kmh 29.91 in1012.9 mb 0.00 in0.0 mm 0.00 in0.0 mm 0.09 in2.3 mm
08:21 AM 76.5°F24.7°C 75.6°F24.2°C 97% 3.7 mph S6.0 kmh S 7.6 mph12.2 kmh 29.91 in1012.9 mb 0.00 in0.0 mm 0.00 in0.0 mm 0.09 in2.3 mm
08:24 AM 76.6°F24.8°C 75.7°F24.3°C 97% 1.2 mph S1.9 kmh S 4.9 mph7.9 kmh 29.91 in1012.9 mb 0.00 in0.0 mm 0.00 in0.0 mm 0.09 in2.3 mm
08:27 AM 76.8°F24.9°C 75.9°F24.4°C 97% 0.2 mph S0.3 kmh S 2.5 mph4.0 kmh 29.91 in1012.9 mb 0.00 in0.0 mm 0.00 in0.0 mm 0.09 in2.3 mm
08:30 AM 76.8°F24.9°C 75.8°F24.3°C 97% 1.3 mph SSW2.1 kmh SSW 4.9 mph7.9 kmh 29.91 in1012.9 mb 0.00 in0.0 mm 0.00 in0.0 mm 0.09 in2.3 mm
08:33 AM 77.0°F25.0°C 75.8°F24.3°C 96% 1.0 mph S1.6 kmh S 4.9 mph7.9 kmh 29.91 in1012.9 mb 0.00 in0.0 mm 0.00 in0.0 mm 0.09 in2.3 mm
08:36 AM 77.0°F25.0°C 75.8°F24.3°C 96% 3.1 mph SSW5.0 kmh SSW 7.6 mph12.2 kmh 29.92 in1013.2 mb 0.00 in0.0 mm 0.00 in0.0 mm 0.09 in2.3 mm
08:39 AM 77.1°F25.1°C 75.9°F24.4°C 96% 0.1 mph S0.2 kmh S 2.5 mph4.0 kmh 29.92 in1013.2 mb 0.00 in0.0 mm 0.00 in0.0 mm 0.09 in2.3 mm
08:42 AM 77.2°F25.1°C 76.0°F24.4°C 96% 1.4 mph S2.3 kmh S 4.9 mph7.9 kmh 29.92 in1013.2 mb 0.00 in0.0 mm 0.00 in0.0 mm 0.09 in2.3 mm
08:45 AM 77.2°F25.1°C 76.0°F24.4°C 96% 0.6 mph SW1.0 kmh SW 2.5 mph4.0 kmh 29.92 in1013.2 mb 0.00 in0.0 mm 0.00 in0.0 mm 0.09 in2.3 mm
08:48 AM 77.2°F25.1°C 76.0°F24.4°C 96% 1.1 mph SSE1.8 kmh SSE 4.9 mph7.9 kmh 29.93 in1013.5 mb 0.00 in0.0 mm 0.00 in0.0 mm 0.09 in2.3 mm
08:51 AM 77.2°F25.1°C 76.0°F24.4°C 96% 0.8 mph S1.3 kmh S 2.5 mph4.0 kmh 29.92 in1013.2 mb 0.00 in0.0 mm 0.00 in0.0 mm 0.09 in2.3 mm
08:54 AM 77.2°F25.1°C 76.0°F24.4°C 96% 1.0 mph SW1.6 kmh SW 2.5 mph4.0 kmh 29.93 in1013.5 mb 0.00 in0.0 mm 0.00 in0.0 mm 0.09 in2.3 mm
08:57 AM 77.2°F25.1°C 76.0°F24.4°C 96% 0.3 mph SW0.5 kmh SW 2.5 mph4.0 kmh 29.93 in1013.5 mb 0.00 in0.0 mm 0.00 in0.0 mm 0.09 in2.3 mm
09:00 AM 77.2°F25.1°C 76.0°F24.4°C 96% 0.3 mph S0.5 kmh S 2.5 mph4.0 kmh 29.93 in1013.5 mb 0.00 in0.0 mm 0.00 in0.0 mm 0.09 in2.3 mm
09:03 AM 77.2°F25.1°C 76.0°F24.4°C 96% 2.3 mph S3.7 kmh S 7.6 mph12.2 kmh 29.92 in1013.2 mb 0.00 in0.0 mm 0.00 in0.0 mm 0.09 in2.3 mm
09:06 AM 77.2°F25.1°C 76.0°F24.4°C 96% 1.1 mph SSE1.8 kmh SSE 4.9 mph7.9 kmh 29.92 in1013.2 mb 0.00 in0.0 mm 0.00 in0.0 mm 0.09 in2.3 mm
09:09 AM 77.2°F25.1°C 76.0°F24.4°C 96% Calm Calm -- 29.93 in1013.5 mb 0.00 in0.0 mm 0.00 in0.0 mm 0.09 in2.3 mm
09:12 AM 77.2°F25.1°C 76.0°F24.4°C 96% 1.9 mph S3.1 kmh S 4.9 mph7.9 kmh 29.93 in1013.5 mb 0.00 in0.0 mm 0.00 in0.0 mm 0.09 in2.3 mm
09:15 AM 77.2°F25.1°C 76.0°F24.4°C 96% 0.5 mph S0.8 kmh S 2.5 mph4.0 kmh 29.93 in1013.5 mb 0.00 in0.0 mm 0.00 in0.0 mm 0.09 in2.3 mm
09:18 AM 77.2°F25.1°C 76.0°F24.4°C 96% 0.5 mph SSW0.8 kmh SSW 2.5 mph4.0 kmh 29.92 in1013.2 mb 0.00 in0.0 mm 0.00 in0.0 mm 0.09 in2.3 mm
09:21 AM 77.2°F25.1°C 75.8°F24.3°C 96% 1.6 mph S2.6 kmh S 2.5 mph4.0 kmh 29.92 in1013.2 mb 0.00 in0.0 mm 0.00 in0.0 mm 0.09 in2.3 mm
09:24 AM 77.2°F25.1°C 75.7°F24.3°C 95% 0.8 mph S1.3 kmh S 4.9 mph7.9 kmh 29.92 in1013.2 mb 0.00 in0.0 mm 0.00 in0.0 mm 0.09 in2.3 mm
09:27 AM 77.2°F25.1°C 75.7°F24.3°C 95% 2.2 mph S3.5 kmh S 7.6 mph12.2 kmh 29.92 in1013.2 mb 0.00 in0.0 mm 0.00 in0.0 mm 0.09 in2.3 mm
09:30 AM 77.2°F25.1°C 75.7°F24.3°C 95% 0.4 mph SSW0.6 kmh SSW 2.5 mph4.0 kmh 29.91 in1012.9 mb 0.00 in0.0 mm 0.00 in0.0 mm 0.09 in2.3 mm
09:33 AM 77.2°F25.1°C 75.7°F24.3°C 95% 0.5 mph S0.8 kmh S 2.5 mph4.0 kmh 29.92 in1013.2 mb 0.00 in0.0 mm 0.00 in0.0 mm 0.09 in2.3 mm
09:36 AM 77.2°F25.1°C 75.7°F24.3°C 95% Calm Calm -- 29.92 in1013.2 mb 0.00 in0.0 mm 0.00 in0.0 mm 0.09 in2.3 mm
09:39 AM 77.2°F25.1°C 75.7°F24.3°C 95% 0.3 mph SW0.5 kmh SW 2.5 mph4.0 kmh 29.92 in1013.2 mb 0.00 in0.0 mm 0.00 in0.0 mm 0.09 in2.3 mm
09:42 AM 77.2°F25.1°C 75.7°F24.3°C 95% 1.2 mph S1.9 kmh S 2.5 mph4.0 kmh 29.93 in1013.5 mb 0.00 in0.0 mm 0.00 in0.0 mm 0.09 in2.3 mm
09:45 AM 77.2°F25.1°C 75.7°F24.3°C 95% 0.5 mph SW0.8 kmh SW 2.5 mph4.0 kmh 29.93 in1013.5 mb 0.00 in0.0 mm 0.00 in0.0 mm 0.09 in2.3 mm
09:48 AM 77.2°F25.1°C 75.7°F24.3°C 95% 0.9 mph SW1.4 kmh SW 2.5 mph4.0 kmh 29.93 in1013.5 mb 0.00 in0.0 mm 0.00 in0.0 mm 0.09 in2.3 mm
09:51 AM 77.2°F25.1°C 75.7°F24.3°C 95% Calm Calm -- 29.93 in1013.5 mb 0.00 in0.0 mm 0.00 in0.0 mm 0.09 in2.3 mm
09:54 AM 77.4°F25.2°C 75.8°F24.3°C 95% Calm Calm -- 29.93 in1013.5 mb 0.00 in0.0 mm 0.00 in0.0 mm 0.09 in2.3 mm
09:57 AM 77.3°F25.2°C 75.7°F24.3°C 95% 0.6 mph SW1.0 kmh SW 2.5 mph4.0 kmh 29.93 in1013.5 mb 0.00 in0.0 mm 0.00 in0.0 mm 0.09 in2.3 mm
10:00 AM 78.0°F25.6°C 76.4°F24.7°C 95% 0.6 mph SSE1.0 kmh SSE 4.9 mph7.9 kmh 29.93 in1013.5 mb 0.00 in0.0 mm 0.00 in0.0 mm 0.09 in2.3 mm
10:03 AM 77.5°F25.3°C 76.0°F24.4°C 95% Calm Calm -- 29.93 in1013.5 mb 0.00 in0.0 mm 0.00 in0.0 mm 0.09 in2.3 mm
10:06 AM 77.4°F25.2°C 75.8°F24.3°C 95% Calm Calm -- 29.93 in1013.5 mb 0.00 in0.0 mm 0.00 in0.0 mm 0.09 in2.3 mm
10:09 AM 78.4°F25.8°C 76.8°F24.9°C 95% Calm Calm -- 29.93 in1013.5 mb 0.00 in0.0 mm 0.00 in0.0 mm 0.09 in2.3 mm
10:12 AM 78.4°F25.8°C 76.9°F24.9°C 95% 1.3 mph SW2.1 kmh SW 2.5 mph4.0 kmh 29.93 in1013.5 mb 0.00 in0.0 mm 0.00 in0.0 mm 0.09 in2.3 mm
10:15 AM 78.2°F25.7°C 76.6°F24.8°C 95% 0.1 mph WSW0.2 kmh WSW 2.5 mph4.0 kmh 29.93 in1013.5 mb 0.00 in0.0 mm 0.00 in0.0 mm 0.09 in2.3 mm
10:18 AM 78.6°F25.9°C 76.7°F24.8°C 94% 0.9 mph SSW1.4 kmh SSW 2.5 mph4.0 kmh 29.93 in1013.5 mb 0.00 in0.0 mm 0.00 in0.0 mm 0.09 in2.3 mm
10:21 AM 78.6°F25.9°C 76.7°F24.8°C 94% 0.3 mph SSW0.5 kmh SSW 2.5 mph4.0 kmh 29.93 in1013.5 mb 0.00 in0.0 mm 0.00 in0.0 mm 0.09 in2.3 mm
10:24 AM 78.6°F25.9°C 76.7°F24.8°C 94% 0.1 mph WSW0.2 kmh WSW 2.5 mph4.0 kmh 29.94 in1013.9 mb 0.00 in0.0 mm 0.00 in0.0 mm 0.09 in2.3 mm
10:27 AM 78.6°F25.9°C 76.7°F24.8°C 94% Calm Calm -- 29.94 in1013.9 mb 0.00 in0.0 mm 0.00 in0.0 mm 0.09 in2.3 mm
10:30 AM 77.6°F25.3°C 75.8°F24.3°C 94% Calm Calm -- 29.94 in1013.9 mb 0.00 in0.0 mm 0.00 in0.0 mm 0.09 in2.3 mm
10:33 AM 77.5°F25.3°C 75.6°F24.2°C 94% 0.2 mph SW0.3 kmh SW 2.5 mph4.0 kmh 29.95 in1014.2 mb 0.00 in0.0 mm 0.00 in0.0 mm 0.09 in2.3 mm
10:36 AM 77.2°F25.1°C 75.3°F24.1°C 94% 0.2 mph SSW0.3 kmh SSW 2.5 mph4.0 kmh 29.94 in1013.9 mb 0.00 in0.0 mm 0.00 in0.0 mm 0.09 in2.3 mm
10:39 AM 77.2°F25.1°C 75.0°F23.9°C 93% Calm Calm -- 29.95 in1014.2 mb 0.00 in0.0 mm 0.00 in0.0 mm 0.09 in2.3 mm
10:42 AM 77.2°F25.1°C 75.0°F23.9°C 93% 1.0 mph WSW1.6 kmh WSW 4.9 mph7.9 kmh 29.95 in1014.2 mb 0.00 in0.0 mm 0.00 in0.0 mm 0.09 in2.3 mm
10:45 AM 77.2°F25.1°C 75.0°F23.9°C 93% Calm Calm -- 29.94 in1013.9 mb 0.00 in0.0 mm 0.00 in0.0 mm 0.09 in2.3 mm
10:48 AM 77.2°F25.1°C 75.0°F23.9°C 93% 0.8 mph SW1.3 kmh SW 4.9 mph7.9 kmh 29.94 in1013.9 mb 0.00 in0.0 mm 0.00 in0.0 mm 0.09 in2.3 mm
10:51 AM 77.2°F25.1°C 75.0°F23.9°C 93% 0.1 mph SW0.2 kmh SW 2.5 mph4.0 kmh 29.94 in1013.9 mb 0.00 in0.0 mm 0.00 in0.0 mm 0.09 in2.3 mm
10:54 AM 77.2°F25.1°C 75.0°F23.9°C 93% 1.0 mph SSW1.6 kmh SSW 4.9 mph7.9 kmh 29.94 in1013.9 mb 0.00 in0.0 mm 0.00 in0.0 mm 0.09 in2.3 mm
10:57 AM 77.2°F25.1°C 75.0°F23.9°C 93% 0.4 mph WSW0.6 kmh WSW 2.5 mph4.0 kmh 29.93 in1013.5 mb 0.01 in0.3 mm 0.20 in5.1 mm 0.10 in2.5 mm
11:00 AM 77.2°F25.1°C 75.0°F23.9°C 93% 0.2 mph SW0.3 kmh SW 2.5 mph4.0 kmh 29.93 in1013.5 mb 0.01 in0.3 mm 0.00 in0.0 mm 0.10 in2.5 mm
11:03 AM 77.2°F25.1°C 75.0°F23.9°C 93% Calm Calm -- 29.93 in1013.5 mb 0.01 in0.3 mm 0.00 in0.0 mm 0.10 in2.5 mm
11:06 AM 77.2°F25.1°C 75.0°F23.9°C 93% Calm Calm -- 29.93 in1013.5 mb 0.01 in0.3 mm 0.00 in0.0 mm 0.10 in2.5 mm
11:09 AM 77.2°F25.1°C 75.0°F23.9°C 93% 0.5 mph WSW0.8 kmh WSW 2.5 mph4.0 kmh 29.93 in1013.5 mb 0.02 in0.5 mm 0.20 in5.1 mm 0.11 in2.8 mm
11:12 AM 77.2°F25.1°C 75.0°F23.9°C 93% Calm Calm -- 29.93 in1013.5 mb 0.02 in0.5 mm 0.00 in0.0 mm 0.11 in2.8 mm
11:15 AM 77.2°F25.1°C 75.0°F23.9°C 93% 1.6 mph WNW2.6 kmh WNW 4.9 mph7.9 kmh 29.93 in1013.5 mb 0.04 in1.0 mm 0.40 in10.2 mm 0.13 in3.3 mm
11:18 AM 77.0°F25.0°C 74.8°F23.8°C 93% 0.5 mph NE0.8 kmh NE 2.5 mph4.0 kmh 29.94 in1013.9 mb 0.04 in1.0 mm 0.00 in0.0 mm 0.13 in3.3 mm
11:21 AM 77.0°F25.0°C 74.8°F23.8°C 93% Calm Calm -- 29.93 in1013.5 mb 0.05 in1.3 mm 0.20 in5.1 mm 0.14 in3.6 mm
11:24 AM 76.5°F24.7°C 74.7°F23.7°C 94% 0.9 mph WSW1.4 kmh WSW 7.6 mph12.2 kmh 29.93 in1013.5 mb 0.07 in1.8 mm 0.40 in10.2 mm 0.16 in4.1 mm
11:27 AM 75.9°F24.4°C 74.0°F23.3°C 94% 0.6 mph WSW1.0 kmh WSW 2.5 mph4.0 kmh 29.94 in1013.9 mb 0.07 in1.8 mm 0.00 in0.0 mm 0.16 in4.1 mm
11:30 AM 75.4°F24.1°C 73.5°F23.1°C 94% Calm Calm -- 29.93 in1013.5 mb 0.08 in2.0 mm 0.20 in5.1 mm 0.17 in4.3 mm
11:33 AM 75.4°F24.1°C 73.5°F23.1°C 94% 0.6 mph W1.0 kmh W 2.5 mph4.0 kmh 29.93 in1013.5 mb 0.08 in2.0 mm 0.00 in0.0 mm 0.17 in4.3 mm
11:36 AM 75.2°F24.0°C 73.3°F22.9°C 94% 0.5 mph W0.8 kmh W 4.9 mph7.9 kmh 29.93 in1013.5 mb 0.09 in2.3 mm 0.20 in5.1 mm 0.18 in4.6 mm
11:39 AM 75.2°F24.0°C 73.3°F22.9°C 94% 1.0 mph WSW1.6 kmh WSW 2.5 mph4.0 kmh 29.94 in1013.9 mb 0.09 in2.3 mm 0.00 in0.0 mm 0.18 in4.6 mm
11:42 AM 75.2°F24.0°C 73.4°F23.0°C 94% 0.6 mph W1.0 kmh W 2.5 mph4.0 kmh 29.94 in1013.9 mb 0.10 in2.5 mm 0.20 in5.1 mm 0.19 in4.8 mm
11:45 AM 75.2°F24.0°C 73.7°F23.2°C 95% 0.6 mph W1.0 kmh W 2.5 mph4.0 kmh 29.93 in1013.5 mb 0.10 in2.5 mm 0.00 in0.0 mm 0.19 in4.8 mm
11:48 AM 75.2°F24.0°C 73.7°F23.2°C 95% Calm Calm -- 29.93 in1013.5 mb 0.10 in2.5 mm 0.00 in0.0 mm 0.19 in4.8 mm
11:51 AM 75.2°F24.0°C 73.7°F23.2°C 95% Calm Calm -- 29.93 in1013.5 mb 0.10 in2.5 mm 0.00 in0.0 mm 0.19 in4.8 mm
11:54 AM 75.5°F24.2°C 74.0°F23.3°C 95% Calm Calm -- 29.93 in1013.5 mb 0.10 in2.5 mm 0.00 in0.0 mm 0.19 in4.8 mm
11:57 AM 75.5°F24.2°C 74.0°F23.3°C 95% 0.5 mph W0.8 kmh W 2.5 mph4.0 kmh 29.92 in1013.2 mb 0.09 in2.3 mm 0.00 in0.0 mm 0.19 in4.8 mm
12:00 PM 75.7°F24.3°C 74.2°F23.4°C 95% 0.1 mph W0.2 kmh W 2.5 mph4.0 kmh 29.93 in1013.5 mb 0.09 in2.3 mm 0.00 in0.0 mm 0.19 in4.8 mm
12:03 PM 75.9°F24.4°C 74.4°F23.6°C 95% Calm Calm -- 29.93 in1013.5 mb 0.10 in2.5 mm 0.20 in5.1 mm 0.20 in5.1 mm
12:06 PM 75.9°F24.4°C 74.4°F23.6°C 95% Calm Calm -- 29.93 in1013.5 mb 0.10 in2.5 mm 0.00 in0.0 mm 0.20 in5.1 mm
12:09 PM 76.0°F24.4°C 74.4°F23.6°C 95% Calm Calm -- 29.93 in1013.5 mb 0.09 in2.3 mm 0.00 in0.0 mm 0.20 in5.1 mm
12:12 PM 76.3°F24.6°C 74.8°F23.8°C 95% Calm Calm -- 29.92 in1013.2 mb 0.09 in2.3 mm 0.00 in0.0 mm 0.20 in5.1 mm
12:15 PM 76.3°F24.6°C 74.8°F23.8°C 95% Calm Calm -- 29.93 in1013.5 mb 0.07 in1.8 mm 0.00 in0.0 mm 0.20 in5.1 mm
12:18 PM 76.5°F24.7°C 75.0°F23.9°C 95% Calm Calm -- 29.92 in1013.2 mb 0.07 in1.8 mm 0.00 in0.0 mm 0.20 in5.1 mm
12:21 PM 76.5°F24.7°C 75.0°F23.9°C 95% Calm Calm -- 29.92 in1013.2 mb 0.06 in1.5 mm 0.00 in0.0 mm 0.20 in5.1 mm
12:24 PM 76.3°F24.6°C 74.8°F23.8°C 95% Calm Calm -- 29.92 in1013.2 mb 0.04 in1.0 mm 0.00 in0.0 mm 0.20 in5.1 mm
12:27 PM 76.1°F24.5°C 74.6°F23.7°C 95% Calm Calm -- 29.92 in1013.2 mb 0.04 in1.0 mm 0.00 in0.0 mm 0.20 in5.1 mm
12:30 PM 76.4°F24.7°C 75.0°F23.9°C 96% Calm Calm -- 29.92 in1013.2 mb 0.03 in0.8 mm 0.00 in0.0 mm 0.20 in5.1 mm
12:33 PM 76.5°F24.7°C 75.3°F24.1°C 96% Calm Calm -- 29.92 in1013.2 mb 0.03 in0.8 mm 0.00 in0.0 mm 0.20 in5.1 mm
12:36 PM 76.5°F24.7°C 75.3°F24.1°C 96% Calm Calm -- 29.91 in1012.9 mb 0.02 in0.5 mm 0.00 in0.0 mm 0.20 in5.1 mm
12:39 PM 76.5°F24.7°C 75.3°F24.1°C 96% Calm Calm -- 29.92 in1013.2 mb 0.02 in0.5 mm 0.00 in0.0 mm 0.20 in5.1 mm
12:42 PM 76.5°F24.7°C 75.3°F24.1°C 96% Calm Calm -- 29.92 in1013.2 mb 0.03 in0.8 mm 0.20 in5.1 mm 0.22 in5.6 mm
12:45 PM 76.7°F24.8°C 75.5°F24.2°C 96% 0.1 mph WSW0.2 kmh WSW 2.5 mph4.0 kmh 29.91 in1012.9 mb 0.03 in0.8 mm 0.00 in0.0 mm 0.22 in5.6 mm
12:48 PM 76.8°F24.9°C 75.6°F24.2°C 96% Calm Calm -- 29.92 in1013.2 mb 0.03 in0.8 mm 0.00 in0.0 mm 0.22 in5.6 mm
12:51 PM 77.0°F25.0°C 75.5°F24.2°C 95% Calm Calm -- 29.91 in1012.9 mb 0.04 in1.0 mm 0.20 in5.1 mm 0.23 in5.8 mm
12:54 PM 77.1°F25.1°C 75.6°F24.2°C 95% Calm Calm -- 29.90 in1012.5 mb 0.04 in1.0 mm 0.00 in0.0 mm 0.23 in5.8 mm
12:57 PM 77.2°F25.1°C 75.7°F24.3°C 95% Calm Calm -- 29.90 in1012.5 mb 0.04 in1.0 mm 0.00 in0.0 mm 0.23 in5.8 mm
01:00 PM 77.2°F25.1°C 75.7°F24.3°C 95% 0.1 mph SW0.2 kmh SW 2.5 mph4.0 kmh 29.90 in1012.5 mb 0.04 in1.0 mm 0.00 in0.0 mm 0.23 in5.8 mm
01:03 PM 77.2°F25.1°C 75.7°F24.3°C 95% Calm Calm -- 29.90 in1012.5 mb 0.03 in0.8 mm 0.00 in0.0 mm 0.23 in5.8 mm
01:06 PM 77.2°F25.1°C 75.7°F24.3°C 95% Calm Calm -- 29.90 in1012.5 mb 0.03 in0.8 mm 0.00 in0.0 mm 0.23 in5.8 mm
01:09 PM 77.2°F25.1°C 75.7°F24.3°C 95% Calm Calm -- 29.90 in1012.5 mb 0.03 in0.8 mm 0.00 in0.0 mm 0.23 in5.8 mm
01:12 PM 77.2°F25.1°C 75.7°F24.3°C 95% Calm Calm -- 29.90 in1012.5 mb 0.03 in0.8 mm 0.00 in0.0 mm 0.23 in5.8 mm
01:15 PM 77.2°F25.1°C 75.7°F24.3°C 95% 1.2 mph S1.9 kmh S 2.5 mph4.0 kmh 29.89 in1012.2 mb 0.04 in1.0 mm 0.20 in5.1 mm 0.24 in6.1 mm
01:18 PM 77.2°F25.1°C 75.7°F24.3°C 95% Calm Calm -- 29.89 in1012.2 mb 0.04 in1.0 mm 0.00 in0.0 mm 0.24 in6.1 mm
01:21 PM 77.2°F25.1°C 75.7°F24.3°C 95% Calm Calm -- 29.88 in1011.9 mb 0.04 in1.0 mm 0.00 in0.0 mm 0.24 in6.1 mm
01:24 PM 77.2°F25.1°C 75.7°F24.3°C 95% 0.1 mph SSE0.2 kmh SSE 2.5 mph4.0 kmh 29.88 in1011.9 mb 0.04 in1.0 mm 0.00 in0.0 mm 0.24 in6.1 mm
01:27 PM 77.2°F25.1°C 75.7°F24.3°C 95% Calm Calm -- 29.88 in1011.9 mb 0.04 in1.0 mm 0.00 in0.0 mm 0.24 in6.1 mm
01:30 PM 77.2°F25.1°C 75.7°F24.3°C 95% Calm Calm -- 29.88 in1011.9 mb 0.04 in1.0 mm 0.00 in0.0 mm 0.24 in6.1 mm
01:33 PM 77.2°F25.1°C 75.7°F24.3°C 95% 0.1 mph SW0.2 kmh SW 2.5 mph4.0 kmh 29.88 in1011.9 mb 0.04 in1.0 mm 0.00 in0.0 mm 0.24 in6.1 mm
01:36 PM 77.2°F25.1°C 75.7°F24.3°C 95% Calm Calm -- 29.88 in1011.9 mb 0.04 in1.0 mm 0.00 in0.0 mm 0.24 in6.1 mm
01:39 PM 77.2°F25.1°C 75.7°F24.3°C 95% 1.8 mph S2.9 kmh S 4.9 mph7.9 kmh 29.87 in1011.5 mb 0.04 in1.0 mm 0.00 in0.0 mm 0.24 in6.1 mm
01:42 PM 77.2°F25.1°C 75.7°F24.3°C 95% 1.2 mph S1.9 kmh S 2.5 mph4.0 kmh 29.87 in1011.5 mb 0.02 in0.5 mm 0.00 in0.0 mm 0.24 in6.1 mm
01:45 PM 77.2°F25.1°C 75.7°F24.3°C 95% Calm Calm -- 29.87 in1011.5 mb 0.02 in0.5 mm 0.00 in0.0 mm 0.24 in6.1 mm
01:48 PM 77.2°F25.1°C 75.7°F24.3°C 95% Calm Calm -- 29.87 in1011.5 mb 0.02 in0.5 mm 0.00 in0.0 mm 0.24 in6.1 mm
01:51 PM 77.2°F25.1°C 75.7°F24.3°C 95% 1.7 mph SW2.7 kmh SW 4.9 mph7.9 kmh 29.87 in1011.5 mb 0.01 in0.3 mm 0.00 in0.0 mm 0.24 in6.1 mm
01:54 PM 77.2°F25.1°C 75.7°F24.3°C 95% 1.0 mph S1.6 kmh S 2.5 mph4.0 kmh 29.86 in1011.2 mb 0.01 in0.3 mm 0.00 in0.0 mm 0.24 in6.1 mm
01:57 PM 77.2°F25.1°C 75.7°F24.3°C 95% 0.1 mph SSW0.2 kmh SSW 2.5 mph4.0 kmh 29.86 in1011.2 mb 0.01 in0.3 mm 0.00 in0.0 mm 0.24 in6.1 mm
02:00 PM 77.2°F25.1°C 75.7°F24.3°C 95% Calm Calm -- 29.86 in1011.2 mb 0.01 in0.3 mm 0.00 in0.0 mm 0.24 in6.1 mm
02:03 PM 77.2°F25.1°C 75.7°F24.3°C 95% Calm Calm -- 29.87 in1011.5 mb 0.01 in0.3 mm 0.00 in0.0 mm 0.24 in6.1 mm
02:06 PM 77.2°F25.1°C 75.7°F24.3°C 95% Calm Calm -- 29.85 in1010.8 mb 0.02 in0.5 mm 0.20 in5.1 mm 0.25 in6.4 mm
02:09 PM 77.2°F25.1°C 75.7°F24.3°C 95% 1.2 mph SSE1.9 kmh SSE 2.5 mph4.0 kmh 29.85 in1010.8 mb 0.02 in0.5 mm 0.00 in0.0 mm 0.25 in6.4 mm
02:12 PM 77.2°F25.1°C 75.7°F24.3°C 95% 0.2 mph S0.3 kmh S 2.5 mph4.0 kmh 29.85 in1010.8 mb 0.02 in0.5 mm 0.00 in0.0 mm 0.25 in6.4 mm
02:15 PM 77.2°F25.1°C 75.7°F24.3°C 95% 0.2 mph SW0.3 kmh SW 2.5 mph4.0 kmh 29.85 in1010.8 mb 0.01 in0.3 mm 0.00 in0.0 mm 0.25 in6.4 mm
02:18 PM 77.2°F25.1°C 75.7°F24.3°C 95% 0.1 mph S0.2 kmh S 2.5 mph4.0 kmh 29.85 in1010.8 mb 0.01 in0.3 mm 0.00 in0.0 mm 0.25 in6.4 mm
02:21 PM 77.2°F25.1°C 75.7°F24.3°C 95% 1.1 mph S1.8 kmh S 4.9 mph7.9 kmh 29.85 in1010.8 mb 0.01 in0.3 mm 0.00 in0.0 mm 0.25 in6.4 mm
02:24 PM 77.2°F25.1°C 75.7°F24.3°C 95% 0.8 mph S1.3 kmh S 2.5 mph4.0 kmh 29.85 in1010.8 mb 0.01 in0.3 mm 0.00 in0.0 mm 0.25 in6.4 mm
02:27 PM 77.2°F25.1°C 75.7°F24.3°C 95% 1.0 mph S1.6 kmh S 2.5 mph4.0 kmh 29.84 in1010.5 mb 0.01 in0.3 mm 0.00 in0.0 mm 0.25 in6.4 mm
02:30 PM 77.2°F25.1°C 75.7°F24.3°C 95% 1.5 mph S2.4 kmh S 4.9 mph7.9 kmh 29.84 in1010.5 mb 0.01 in0.3 mm 0.00 in0.0 mm 0.25 in6.4 mm
02:33 PM 77.2°F25.1°C 75.7°F24.3°C 95% 1.2 mph S1.9 kmh S 2.5 mph4.0 kmh 29.84 in1010.5 mb 0.01 in0.3 mm 0.00 in0.0 mm 0.25 in6.4 mm
02:36 PM 77.2°F25.1°C 75.7°F24.3°C 95% Calm Calm -- 29.84 in1010.5 mb 0.01 in0.3 mm 0.00 in0.0 mm 0.25 in6.4 mm
02:39 PM 77.2°F25.1°C 75.7°F24.3°C 95% Calm Calm -- 29.85 in1010.8 mb 0.01 in0.3 mm 0.00 in0.0 mm 0.25 in6.4 mm
02:42 PM 77.2°F25.1°C 75.7°F24.3°C 95% 0.3 mph S0.5 kmh S 2.5 mph4.0 kmh 29.85 in1010.8 mb 0.01 in0.3 mm 0.00 in0.0 mm 0.25 in6.4 mm
02:45 PM 77.2°F25.1°C 75.7°F24.3°C 95% Calm Calm -- 29.84 in1010.5 mb 0.01 in0.3 mm 0.00 in0.0 mm 0.25 in6.4 mm
02:48 PM 77.2°F25.1°C 75.7°F24.3°C 95% 0.1 mph S0.2 kmh S 2.5 mph4.0 kmh 29.85 in1010.8 mb 0.01 in0.3 mm 0.00 in0.0 mm 0.25 in6.4 mm
02:51 PM 77.2°F25.1°C 75.7°F24.3°C 95% Calm Calm -- 29.85 in1010.8 mb 0.01 in0.3 mm 0.00 in0.0 mm 0.25 in6.4 mm
02:54 PM 77.2°F25.1°C 75.7°F24.3°C 95% Calm Calm -- 29.85 in1010.8 mb 0.01 in0.3 mm 0.00 in0.0 mm 0.25 in6.4 mm
02:57 PM 77.2°F25.1°C 75.7°F24.3°C 95% Calm Calm -- 29.84 in1010.5 mb 0.01 in0.3 mm 0.00 in0.0 mm 0.25 in6.4 mm
03:00 PM 77.0°F25.0°C 75.5°F24.2°C 95% Calm Calm -- 29.84 in1010.5 mb 0.01 in0.3 mm 0.00 in0.0 mm 0.25 in6.4 mm
03:03 PM 77.2°F25.1°C 75.7°F24.3°C 95% Calm Calm -- 29.84 in1010.5 mb 0.01 in0.3 mm 0.00 in0.0 mm 0.25 in6.4 mm
03:06 PM 77.0°F25.0°C 75.5°F24.2°C 95% Calm Calm -- 29.84 in1010.5 mb 0.00 in0.0 mm 0.00 in0.0 mm 0.25 in6.4 mm
03:09 PM 77.1°F25.1°C 75.6°F24.2°C 95% 0.1 mph WSW0.2 kmh WSW 2.5 mph4.0 kmh 29.84 in1010.5 mb 0.00 in0.0 mm 0.00 in0.0 mm 0.25 in6.4 mm
03:12 PM 77.0°F25.0°C 75.5°F24.2°C 95% 0.3 mph S0.5 kmh S 2.5 mph4.0 kmh 29.84 in1010.5 mb 0.00 in0.0 mm 0.00 in0.0 mm 0.25 in6.4 mm
03:15 PM 77.0°F25.0°C 75.5°F24.2°C 95% 1.9 mph SSE3.1 kmh SSE 7.6 mph12.2 kmh 29.83 in1010.2 mb 0.00 in0.0 mm 0.00 in0.0 mm 0.25 in6.4 mm
03:18 PM 77.0°F25.0°C 75.5°F24.2°C 95% 1.1 mph SE1.8 kmh SE 4.9 mph7.9 kmh 29.83 in1010.2 mb 0.00 in0.0 mm 0.00 in0.0 mm 0.25 in6.4 mm
03:21 PM 77.0°F25.0°C 75.5°F24.2°C 95% Calm Calm -- 29.83 in1010.2 mb 0.00 in0.0 mm 0.00 in0.0 mm 0.25 in6.4 mm
03:24 PM 77.0°F25.0°C 75.5°F24.2°C 95% Calm Calm -- 29.83 in1010.2 mb 0.00 in0.0 mm 0.00 in0.0 mm 0.25 in6.4 mm
03:27 PM 77.0°F25.0°C 75.5°F24.2°C 95% Calm Calm -- 29.84 in1010.5 mb 0.00 in0.0 mm 0.00 in0.0 mm 0.25 in6.4 mm
03:30 PM 77.0°F25.0°C 75.5°F24.2°C 95% 0.6 mph S1.0 kmh S 2.5 mph4.0 kmh 29.84 in1010.5 mb 0.00 in0.0 mm 0.00 in0.0 mm 0.25 in6.4 mm
03:33 PM 77.0°F25.0°C 75.4°F24.1°C 95% 0.2 mph SW0.3 kmh SW 4.9 mph7.9 kmh 29.83 in1010.2 mb 0.00 in0.0 mm 0.00 in0.0 mm 0.25 in6.4 mm
03:36 PM 77.0°F25.0°C 75.5°F24.2°C 95% Calm Calm -- 29.84 in1010.5 mb 0.00 in0.0 mm 0.00 in0.0 mm 0.25 in6.4 mm
03:39 PM 76.8°F24.9°C 75.5°F24.2°C 96% 0.9 mph SSE1.4 kmh SSE 4.9 mph7.9 kmh 29.84 in1010.5 mb 0.00 in0.0 mm 0.00 in0.0 mm 0.25 in6.4 mm
03:42 PM 76.8°F24.9°C 75.5°F24.2°C 96% Calm Calm -- 29.83 in1010.2 mb 0.00 in0.0 mm 0.00 in0.0 mm 0.25 in6.4 mm
03:45 PM 76.8°F24.9°C 75.4°F24.1°C 96% Calm Calm -- 29.84 in1010.5 mb 0.00 in0.0 mm 0.00 in0.0 mm 0.25 in6.4 mm
03:48 PM 76.9°F24.9°C 75.4°F24.1°C 95% 0.1 mph S0.2 kmh S 2.5 mph4.0 kmh 29.83 in1010.2 mb 0.00 in0.0 mm 0.00 in0.0 mm 0.25 in6.4 mm
03:51 PM 76.9°F24.9°C 75.4°F24.1°C 95% 0.5 mph SW0.8 kmh SW 2.5 mph4.0 kmh 29.83 in1010.2 mb 0.00 in0.0 mm 0.00 in0.0 mm 0.25 in6.4 mm
03:54 PM 76.7°F24.8°C 75.5°F24.2°C 96% Calm Calm -- 29.84 in1010.5 mb 0.00 in0.0 mm 0.00 in0.0 mm 0.25 in6.4 mm
03:57 PM 76.9°F24.9°C 75.4°F24.1°C 95% 0.1 mph WSW0.2 kmh WSW 2.5 mph4.0 kmh 29.83 in1010.2 mb 0.00 in0.0 mm 0.00 in0.0 mm 0.25 in6.4 mm
04:00 PM 77.0°F25.0°C 75.5°F24.2°C 95% Calm Calm -- 29.83 in1010.2 mb 0.00 in0.0 mm 0.00 in0.0 mm 0.25 in6.4 mm
04:03 PM 77.0°F25.0°C 75.5°F24.2°C 95% Calm Calm -- 29.83 in1010.2 mb 0.00 in0.0 mm 0.00 in0.0 mm 0.25 in6.4 mm
04:06 PM 76.8°F24.9°C 75.5°F24.2°C 96% Calm Calm -- 29.83 in1010.2 mb 0.00 in0.0 mm 0.00 in0.0 mm 0.25 in6.4 mm
04:09 PM 76.8°F24.9°C 75.6°F24.2°C 96% Calm Calm -- 29.82 in1009.8 mb 0.00 in0.0 mm 0.00 in0.0 mm 0.25 in6.4 mm
04:12 PM 76.7°F24.8°C 75.4°F24.1°C 96% Calm Calm -- 29.83 in1010.2 mb 0.00 in0.0 mm 0.00 in0.0 mm 0.25 in6.4 mm
04:15 PM 76.6°F24.8°C 75.4°F24.1°C 96% 0.1 mph SW0.2 kmh SW 2.5 mph4.0 kmh 29.83 in1010.2 mb 0.00 in0.0 mm 0.00 in0.0 mm 0.25 in6.4 mm
04:18 PM 76.5°F24.7°C 75.3°F24.1°C 96% 0.3 mph SW0.5 kmh SW 2.5 mph4.0 kmh 29.83 in1010.2 mb 0.00 in0.0 mm 0.00 in0.0 mm 0.25 in6.4 mm
04:21 PM 76.5°F24.7°C 75.3°F24.1°C 96% Calm Calm -- 29.83 in1010.2 mb 0.00 in0.0 mm 0.00 in0.0 mm 0.25 in6.4 mm
04:24 PM 76.5°F24.7°C 75.2°F24.0°C 96% Calm Calm -- 29.83 in1010.2 mb 0.00 in0.0 mm 0.00 in0.0 mm 0.25 in6.4 mm
04:27 PM 76.5°F24.7°C 75.3°F24.1°C 96% Calm Calm -- 29.83 in1010.2 mb 0.00 in0.0 mm 0.00 in0.0 mm 0.25 in6.4 mm
04:30 PM 76.5°F24.7°C 75.3°F24.1°C 96% Calm Calm -- 29.83 in1010.2 mb 0.00 in0.0 mm 0.00 in0.0 mm 0.25 in6.4 mm
04:33 PM 76.5°F24.7°C 75.3°F24.1°C 96% Calm Calm -- 29.83 in1010.2 mb 0.00 in0.0 mm 0.00 in0.0 mm 0.25 in6.4 mm
04:36 PM 76.5°F24.7°C 75.3°F24.1°C 96% Calm Calm -- 29.83 in1010.2 mb 0.00 in0.0 mm 0.00 in0.0 mm 0.25 in6.4 mm
04:39 PM 76.8°F24.9°C 75.6°F24.2°C 96% Calm Calm -- 29.83 in1010.2 mb 0.00 in0.0 mm 0.00 in0.0 mm 0.25 in6.4 mm
04:42 PM 76.8°F24.9°C 75.6°F24.2°C 96% Calm Calm -- 29.83 in1010.2 mb 0.00 in0.0 mm 0.00 in0.0 mm 0.25 in6.4 mm
04:45 PM 76.8°F24.9°C 75.5°F24.2°C 96% Calm Calm -- 29.83 in1010.2 mb 0.00 in0.0 mm 0.00 in0.0 mm 0.25 in6.4 mm
04:48 PM 76.7°F24.8°C 75.5°F24.2°C 96% Calm Calm -- 29.83 in1010.2 mb 0.00 in0.0 mm 0.00 in0.0 mm 0.25 in6.4 mm
04:51 PM 76.8°F24.9°C 75.6°F24.2°C 96% Calm Calm -- 29.83 in1010.2 mb 0.00 in0.0 mm 0.00 in0.0 mm 0.25 in6.4 mm
04:54 PM 76.8°F24.9°C 75.5°F24.2°C 96% Calm Calm -- 29.83 in1010.2 mb 0.00 in0.0 mm 0.00 in0.0 mm 0.25 in6.4 mm
04:57 PM 76.8°F24.9°C 75.6°F24.2°C 96% Calm Calm -- 29.82 in1009.8 mb 0.00 in0.0 mm 0.00 in0.0 mm 0.25 in6.4 mm
05:00 PM 76.8°F24.9°C 75.5°F24.2°C 96% Calm Calm -- 29.82 in1009.8 mb 0.00 in0.0 mm 0.00 in0.0 mm 0.25 in6.4 mm
05:03 PM 76.8°F24.9°C 75.6°F24.2°C 96% Calm Calm -- 29.83 in1010.2 mb 0.00 in0.0 mm 0.00 in0.0 mm 0.25 in6.4 mm
05:06 PM 76.7°F24.8°C 75.4°F24.1°C 96% Calm Calm -- 29.83 in1010.2 mb 0.00 in0.0 mm 0.00 in0.0 mm 0.25 in6.4 mm
05:09 PM 76.6°F24.8°C 75.4°F24.1°C 96% Calm Calm -- 29.82 in1009.8 mb 0.00 in0.0 mm 0.00 in0.0 mm 0.25 in6.4 mm
05:12 PM 76.6°F24.8°C 75.4°F24.1°C 96% Calm Calm -- 29.82 in1009.8 mb 0.00 in0.0 mm 0.00 in0.0 mm 0.25 in6.4 mm
05:15 PM 76.8°F24.9°C 75.5°F24.2°C 96% Calm Calm -- 29.82 in1009.8 mb 0.00 in0.0 mm 0.00 in0.0 mm 0.25 in6.4 mm
05:18 PM 76.8°F24.9°C 75.6°F24.2°C 96% Calm Calm -- 29.82 in1009.8 mb 0.00 in0.0 mm 0.00 in0.0 mm 0.25 in6.4 mm
05:21 PM 76.7°F24.8°C 75.5°F24.2°C 96% Calm Calm -- 29.82 in1009.8 mb 0.00 in0.0 mm 0.00 in0.0 mm 0.25 in6.4 mm
05:24 PM 76.5°F24.7°C 75.3°F24.1°C 96% Calm Calm -- 29.82 in1009.8 mb 0.00 in0.0 mm 0.00 in0.0 mm 0.25 in6.4 mm
05:27 PM 76.7°F24.8°C 75.5°F24.2°C 96% Calm Calm -- 29.81 in1009.5 mb 0.00 in0.0 mm 0.00 in0.0 mm 0.25 in6.4 mm
05:30 PM 76.8°F24.9°C 75.5°F24.2°C 96% Calm Calm -- 29.81 in1009.5 mb 0.00 in0.0 mm 0.00 in0.0 mm 0.25 in6.4 mm
05:33 PM 76.5°F24.7°C 75.3°F24.1°C 96% Calm Calm -- 29.82 in1009.8 mb 0.00 in0.0 mm 0.00 in0.0 mm 0.25 in6.4 mm
05:36 PM 76.5°F24.7°C 75.3°F24.1°C 96% Calm Calm -- 29.81 in1009.5 mb 0.00 in0.0 mm 0.00 in0.0 mm 0.25 in6.4 mm
05:39 PM 76.5°F24.7°C 75.3°F24.1°C 96% Calm Calm -- 29.82 in1009.8 mb 0.00 in0.0 mm 0.00 in0.0 mm 0.25 in6.4 mm
05:42 PM 76.5°F24.7°C 75.3°F24.1°C 96% Calm Calm -- 29.83 in1010.2 mb 0.00 in0.0 mm 0.00 in0.0 mm 0.25 in6.4 mm
05:45 PM 76.5°F24.7°C 75.3°F24.1°C 96% Calm Calm -- 29.82 in1009.8 mb 0.00 in0.0 mm 0.00 in0.0 mm 0.25 in6.4 mm
05:48 PM 76.5°F24.7°C 75.3°F24.1°C 96% Calm Calm -- 29.82 in1009.8 mb 0.00 in0.0 mm 0.00 in0.0 mm 0.25 in6.4 mm
05:51 PM 76.5°F24.7°C 75.3°F24.1°C 96% Calm Calm -- 29.82 in1009.8 mb 0.00 in0.0 mm 0.00 in0.0 mm 0.25 in6.4 mm
05:54 PM 76.5°F24.7°C 75.3°F24.1°C 96% Calm Calm -- 29.82 in1009.8 mb 0.00 in0.0 mm 0.00 in0.0 mm 0.25 in6.4 mm
05:57 PM 76.5°F24.7°C 75.3°F24.1°C 96% Calm Calm -- 29.82 in1009.8 mb 0.00 in0.0 mm 0.00 in0.0 mm 0.25 in6.4 mm
06:00 PM 76.5°F24.7°C 75.3°F24.1°C 96% Calm Calm -- 29.82 in1009.8 mb 0.00 in0.0 mm 0.00 in0.0 mm 0.25 in6.4 mm
06:03 PM 76.5°F24.7°C 75.3°F24.1°C 96% Calm Calm -- 29.83 in1010.2 mb 0.00 in0.0 mm 0.00 in0.0 mm 0.25 in6.4 mm
06:06 PM 76.5°F24.7°C 75.3°F24.1°C 96% Calm Calm -- 29.82 in1009.8 mb 0.00 in0.0 mm 0.00 in0.0 mm 0.25 in6.4 mm
06:09 PM 76.5°F24.7°C 75.3°F24.1°C 96% Calm Calm -- 29.83 in1010.2 mb 0.00 in0.0 mm 0.00 in0.0 mm 0.25 in6.4 mm
06:12 PM 76.5°F24.7°C 75.3°F24.1°C 96% Calm Calm -- 29.83 in1010.2 mb 0.00 in0.0 mm 0.00 in0.0 mm 0.25 in6.4 mm
06:15 PM 76.5°F24.7°C 75.3°F24.1°C 96% Calm Calm -- 29.84 in1010.5 mb 0.00 in0.0 mm 0.00 in0.0 mm 0.25 in6.4 mm
06:18 PM 76.4°F24.7°C 75.2°F24.0°C 96% Calm Calm -- 29.83 in1010.2 mb 0.00 in0.0 mm 0.00 in0.0 mm 0.25 in6.4 mm
06:21 PM 76.4°F24.7°C 75.2°F24.0°C 96% Calm Calm -- 29.85 in1010.8 mb 0.00 in0.0 mm 0.00 in0.0 mm 0.25 in6.4 mm
06:24 PM 76.5°F24.7°C 75.3°F24.1°C 96% Calm Calm -- 29.84 in1010.5 mb 0.00 in0.0 mm 0.00 in0.0 mm 0.25 in6.4 mm
06:27 PM 76.5°F24.7°C 75.3°F24.1°C 96% Calm Calm -- 29.84 in1010.5 mb 0.00 in0.0 mm 0.00 in0.0 mm 0.25 in6.4 mm
06:30 PM 76.5°F24.7°C 75.3°F24.1°C 96% Calm Calm -- 29.84 in1010.5 mb 0.00 in0.0 mm 0.00 in0.0 mm 0.25 in6.4 mm
06:33 PM 76.5°F24.7°C 75.3°F24.1°C 96% Calm Calm -- 29.85 in1010.8 mb 0.00 in0.0 mm 0.00 in0.0 mm 0.25 in6.4 mm
06:36 PM 76.5°F24.7°C 75.3°F24.1°C 96% Calm Calm -- 29.85 in1010.8 mb 0.00 in0.0 mm 0.00 in0.0 mm 0.25 in6.4 mm
06:39 PM 76.5°F24.7°C 75.3°F24.1°C 96% Calm Calm -- 29.85 in1010.8 mb 0.00 in0.0 mm 0.00 in0.0 mm 0.25 in6.4 mm
06:42 PM 76.5°F24.7°C 75.3°F24.1°C 96% Calm Calm -- 29.85 in1010.8 mb 0.00 in0.0 mm 0.00 in0.0 mm 0.25 in6.4 mm
06:45 PM 76.5°F24.7°C 75.3°F24.1°C 96% Calm Calm -- 29.84 in1010.5 mb 0.00 in0.0 mm 0.00 in0.0 mm 0.25 in6.4 mm
06:48 PM 76.6°F24.8°C 75.3°F24.1°C 96% Calm Calm -- 29.84 in1010.5 mb 0.00 in0.0 mm 0.00 in0.0 mm 0.25 in6.4 mm
06:51 PM 76.5°F24.7°C 75.3°F24.1°C 96% Calm Calm -- 29.84 in1010.5 mb 0.00 in0.0 mm 0.00 in0.0 mm 0.25 in6.4 mm
06:54 PM 76.5°F24.7°C 75.3°F24.1°C 96% Calm Calm -- 29.84 in1010.5 mb 0.00 in0.0 mm 0.00 in0.0 mm 0.25 in6.4 mm
06:57 PM 76.5°F24.7°C 75.3°F24.1°C 96% Calm Calm -- 29.85 in1010.8 mb 0.00 in0.0 mm 0.00 in0.0 mm 0.25 in6.4 mm
07:00 PM 76.5°F24.7°C 75.2°F24.0°C 96% Calm Calm -- 29.84 in1010.5 mb 0.00 in0.0 mm 0.00 in0.0 mm 0.25 in6.4 mm
07:03 PM 76.3°F24.6°C 75.1°F23.9°C 96% Calm Calm -- 29.84 in1010.5 mb 0.00 in0.0 mm 0.00 in0.0 mm 0.25 in6.4 mm
07:06 PM 76.3°F24.6°C 75.1°F23.9°C 96% Calm Calm -- 29.84 in1010.5 mb 0.00 in0.0 mm 0.00 in0.0 mm 0.25 in6.4 mm
07:09 PM 76.3°F24.6°C 75.1°F23.9°C 96% Calm Calm -- 29.84 in1010.5 mb 0.00 in0.0 mm 0.00 in0.0 mm 0.25 in6.4 mm
07:12 PM 76.3°F24.6°C 75.1°F23.9°C 96% Calm Calm -- 29.83 in1010.2 mb 0.00 in0.0 mm 0.00 in0.0 mm 0.25 in6.4 mm
07:15 PM 76.3°F24.6°C 75.1°F23.9°C 96% Calm Calm -- 29.84 in1010.5 mb 0.00 in0.0 mm 0.00 in0.0 mm 0.25 in6.4 mm
07:18 PM 76.3°F24.6°C 75.1°F23.9°C 96% Calm Calm -- 29.85 in1010.8 mb 0.00 in0.0 mm 0.00 in0.0 mm 0.25 in6.4 mm
07:21 PM 76.3°F24.6°C 75.1°F23.9°C 96% Calm Calm -- 29.84 in1010.5 mb 0.00 in0.0 mm 0.00 in0.0 mm 0.25 in6.4 mm
07:24 PM 76.3°F24.6°C 75.4°F24.1°C 97% Calm Calm -- 29.84 in1010.5 mb 0.00 in0.0 mm 0.00 in0.0 mm 0.25 in6.4 mm
07:27 PM 76.3°F24.6°C 75.4°F24.1°C 97% Calm Calm -- 29.84 in1010.5 mb 0.00 in0.0 mm 0.00 in0.0 mm 0.25 in6.4 mm
07:30 PM 76.3°F24.6°C 75.4°F24.1°C 97% Calm Calm -- 29.85 in1010.8 mb 0.00 in0.0 mm 0.00 in0.0 mm 0.25 in6.4 mm
07:33 PM 76.3°F24.6°C 75.4°F24.1°C 97% Calm Calm -- 29.84 in1010.5 mb 0.00 in0.0 mm 0.00 in0.0 mm 0.25 in6.4 mm
07:36 PM 76.3°F24.6°C 75.4°F24.1°C 97% Calm Calm -- 29.85 in1010.8 mb 0.00 in0.0 mm 0.00 in0.0 mm 0.25 in6.4 mm
07:39 PM 76.5°F24.7°C 75.5°F24.2°C 97% Calm Calm -- 29.85 in1010.8 mb 0.00 in0.0 mm 0.00 in0.0 mm 0.25 in6.4 mm
07:42 PM 76.5°F24.7°C 75.6°F24.2°C 97% Calm Calm -- 29.85 in1010.8 mb 0.00 in0.0 mm 0.00 in0.0 mm 0.25 in6.4 mm
07:45 PM 76.5°F24.7°C 75.6°F24.2°C 97% Calm Calm -- 29.86 in1011.2 mb 0.00 in0.0 mm 0.00 in0.0 mm 0.25 in6.4 mm
07:48 PM 76.5°F24.7°C 75.6°F24.2°C 97% Calm Calm -- 29.86 in1011.2 mb 0.00 in0.0 mm 0.00 in0.0 mm 0.25 in6.4 mm
07:51 PM 76.8°F24.9°C 75.8°F24.3°C 97% Calm Calm -- 29.85 in1010.8 mb 0.00 in0.0 mm 0.00 in0.0 mm 0.25 in6.4 mm
07:54 PM 76.7°F24.8°C 75.8°F24.3°C 97% Calm Calm -- 29.85 in1010.8 mb 0.00 in0.0 mm 0.00 in0.0 mm 0.25 in6.4 mm
07:57 PM 76.5°F24.7°C 75.6°F24.2°C 97% Calm Calm -- 29.85 in1010.8 mb 0.00 in0.0 mm 0.00 in0.0 mm 0.25 in6.4 mm
08:00 PM 76.5°F24.7°C 75.6°F24.2°C 97% Calm Calm -- 29.85 in1010.8 mb 0.00 in0.0 mm 0.00 in0.0 mm 0.25 in6.4 mm
08:03 PM 76.5°F24.7°C 75.6°F24.2°C 97% Calm Calm -- 29.85 in1010.8 mb 0.00 in0.0 mm 0.00 in0.0 mm 0.25 in6.4 mm
08:06 PM 76.5°F24.7°C 75.6°F24.2°C 97% Calm Calm -- 29.85 in1010.8 mb 0.00 in0.0 mm 0.00 in0.0 mm 0.25 in6.4 mm
08:09 PM 76.5°F24.7°C 75.6°F24.2°C 97% Calm Calm -- 29.84 in1010.5 mb 0.00 in0.0 mm 0.00 in0.0 mm 0.25 in6.4 mm
08:12 PM 76.5°F24.7°C 75.6°F24.2°C 97% 0.8 mph S1.3 kmh S 2.5 mph4.0 kmh 29.84 in1010.5 mb 0.00 in0.0 mm 0.00 in0.0 mm 0.25 in6.4 mm
08:15 PM 76.5°F24.7°C 75.6°F24.2°C 97% 0.6 mph S1.0 kmh S 2.5 mph4.0 kmh 29.84 in1010.5 mb 0.00 in0.0 mm 0.00 in0.0 mm 0.25 in6.4 mm
08:18 PM 76.5°F24.7°C 75.6°F24.2°C 97% Calm Calm -- 29.85 in1010.8 mb 0.00 in0.0 mm 0.00 in0.0 mm 0.25 in6.4 mm
08:21 PM 76.5°F24.7°C 75.6°F24.2°C 97% Calm Calm -- 29.85 in1010.8 mb 0.00 in0.0 mm 0.00 in0.0 mm 0.25 in6.4 mm
08:24 PM 76.5°F24.7°C 75.6°F24.2°C 97% Calm Calm -- 29.85 in1010.8 mb 0.00 in0.0 mm 0.00 in0.0 mm 0.25 in6.4 mm
08:27 PM 76.8°F24.9°C 75.8°F24.3°C 97% Calm Calm -- 29.86 in1011.2 mb 0.00 in0.0 mm 0.00 in0.0 mm 0.25 in6.4 mm
08:30 PM 77.0°F25.0°C 75.8°F24.3°C 96% Calm Calm -- 29.86 in1011.2 mb 0.00 in0.0 mm 0.00 in0.0 mm 0.25 in6.4 mm
08:33 PM 77.0°F25.0°C 75.8°F24.3°C 96% Calm Calm -- 29.87 in1011.5 mb 0.00 in0.0 mm 0.00 in0.0 mm 0.25 in6.4 mm
08:36 PM 77.0°F25.0°C 75.8°F24.3°C 96% Calm Calm -- 29.87 in1011.5 mb 0.00 in0.0 mm 0.00 in0.0 mm 0.25 in6.4 mm
08:39 PM 77.0°F25.0°C 75.8°F24.3°C 96% Calm Calm -- 29.86 in1011.2 mb 0.00 in0.0 mm 0.00 in0.0 mm 0.25 in6.4 mm
08:42 PM 77.0°F25.0°C 75.8°F24.3°C 96% Calm Calm -- 29.87 in1011.5 mb 0.00 in0.0 mm 0.00 in0.0 mm 0.25 in6.4 mm
08:45 PM 77.0°F25.0°C 75.8°F24.3°C 96% Calm Calm -- 29.87 in1011.5 mb 0.00 in0.0 mm 0.00 in0.0 mm 0.25 in6.4 mm
08:48 PM 77.0°F25.0°C 75.8°F24.3°C 96% Calm Calm -- 29.87 in1011.5 mb 0.00 in0.0 mm 0.00 in0.0 mm 0.25 in6.4 mm
08:51 PM 77.0°F25.0°C 75.8°F24.3°C 96% Calm Calm -- 29.87 in1011.5 mb 0.00 in0.0 mm 0.00 in0.0 mm 0.25 in6.4 mm
08:54 PM 77.0°F25.0°C 75.8°F24.3°C 96% Calm Calm -- 29.87 in1011.5 mb 0.00 in0.0 mm 0.00 in0.0 mm 0.25 in6.4 mm
08:57 PM 77.0°F25.0°C 75.8°F24.3°C 96% 1.1 mph NW1.8 kmh NW 4.9 mph7.9 kmh 29.88 in1011.9 mb 0.00 in0.0 mm 0.00 in0.0 mm 0.25 in6.4 mm
09:00 PM 77.0°F25.0°C 75.8°F24.3°C 96% 2.2 mph NW3.5 kmh NW 4.9 mph7.9 kmh 29.88 in1011.9 mb 0.00 in0.0 mm 0.00 in0.0 mm 0.25 in6.4 mm
09:03 PM 77.0°F25.0°C 75.8°F24.3°C 96% 0.1 mph W0.2 kmh W 2.5 mph4.0 kmh 29.88 in1011.9 mb 0.00 in0.0 mm 0.00 in0.0 mm 0.25 in6.4 mm
09:06 PM 77.0°F25.0°C 75.8°F24.3°C 96% Calm Calm -- 29.89 in1012.2 mb 0.00 in0.0 mm 0.00 in0.0 mm 0.25 in6.4 mm
09:09 PM 77.2°F25.1°C 76.0°F24.4°C 96% Calm Calm -- 29.88 in1011.9 mb 0.00 in0.0 mm 0.00 in0.0 mm 0.25 in6.4 mm
09:12 PM 77.2°F25.1°C 76.0°F24.4°C 96% Calm Calm -- 29.89 in1012.2 mb 0.00 in0.0 mm 0.00 in0.0 mm 0.25 in6.4 mm
09:15 PM 77.2°F25.1°C 76.0°F24.4°C 96% Calm Calm -- 29.89 in1012.2 mb 0.00 in0.0 mm 0.00 in0.0 mm 0.25 in6.4 mm
09:18 PM 77.2°F25.1°C 76.0°F24.4°C 96% Calm Calm -- 29.90 in1012.5 mb 0.00 in0.0 mm 0.00 in0.0 mm 0.25 in6.4 mm
09:21 PM 77.2°F25.1°C 76.0°F24.4°C 96% Calm Calm -- 29.90 in1012.5 mb 0.00 in0.0 mm 0.00 in0.0 mm 0.25 in6.4 mm
09:24 PM 77.2°F25.1°C 76.0°F24.4°C 96% Calm Calm -- 29.90 in1012.5 mb 0.00 in0.0 mm 0.00 in0.0 mm 0.25 in6.4 mm
09:27 PM 77.2°F25.1°C 76.0°F24.4°C 96% Calm Calm -- 29.89 in1012.2 mb 0.00 in0.0 mm 0.00 in0.0 mm 0.25 in6.4 mm
09:30 PM 77.2°F25.1°C 76.0°F24.4°C 96% Calm Calm -- 29.90 in1012.5 mb 0.00 in0.0 mm 0.00 in0.0 mm 0.25 in6.4 mm
09:33 PM 77.2°F25.1°C 75.9°F24.4°C 96% Calm Calm -- 29.90 in1012.5 mb 0.00 in0.0 mm 0.00 in0.0 mm 0.25 in6.4 mm
09:36 PM 77.0°F25.0°C 75.8°F24.3°C 96% Calm Calm -- 29.91 in1012.9 mb 0.00 in0.0 mm 0.00 in0.0 mm 0.25 in6.4 mm
09:39 PM 77.2°F25.1°C 76.0°F24.4°C 96% Calm Calm -- 29.91 in1012.9 mb 0.00 in0.0 mm 0.00 in0.0 mm 0.25 in6.4 mm
09:42 PM 77.0°F25.0°C 75.8°F24.3°C 96% Calm Calm -- 29.91 in1012.9 mb 0.00 in0.0 mm 0.00 in0.0 mm 0.25 in6.4 mm
09:45 PM 77.0°F25.0°C 75.8°F24.3°C 96% Calm Calm -- 29.91 in1012.9 mb 0.00 in0.0 mm 0.00 in0.0 mm 0.25 in6.4 mm
09:48 PM 77.0°F25.0°C 75.8°F24.3°C 96% Calm Calm -- 29.91 in1012.9 mb 0.00 in0.0 mm 0.00 in0.0 mm 0.25 in6.4 mm
09:51 PM 77.2°F25.1°C 76.0°F24.4°C 96% Calm Calm -- 29.91 in1012.9 mb 0.00 in0.0 mm 0.00 in0.0 mm 0.25 in6.4 mm
09:54 PM 77.2°F25.1°C 76.0°F24.4°C 96% Calm Calm -- 29.91 in1012.9 mb 0.00 in0.0 mm 0.00 in0.0 mm 0.25 in6.4 mm
09:57 PM 77.2°F25.1°C 76.0°F24.4°C 96% Calm Calm -- 29.91 in1012.9 mb 0.00 in0.0 mm 0.00 in0.0 mm 0.25 in6.4 mm
10:00 PM 77.2°F25.1°C 76.0°F24.4°C 96% 0.2 mph W0.3 kmh W 2.5 mph4.0 kmh 29.91 in1012.9 mb 0.00 in0.0 mm 0.00 in0.0 mm 0.25 in6.4 mm
10:03 PM 77.2°F25.1°C 76.0°F24.4°C 96% 0.1 mph W0.2 kmh W 2.5 mph4.0 kmh 29.92 in1013.2 mb 0.00 in0.0 mm 0.00 in0.0 mm 0.25 in6.4 mm
10:06 PM 77.2°F25.1°C 76.0°F24.4°C 96% Calm Calm -- 29.91 in1012.9 mb 0.00 in0.0 mm 0.00 in0.0 mm 0.25 in6.4 mm
10:09 PM 77.2°F25.1°C 76.0°F24.4°C 96% Calm Calm -- 29.91 in1012.9 mb 0.00 in0.0 mm 0.00 in0.0 mm 0.25 in6.4 mm
10:12 PM 77.2°F25.1°C 76.0°F24.4°C 96% Calm Calm -- 29.92 in1013.2 mb 0.00 in0.0 mm 0.00 in0.0 mm 0.25 in6.4 mm
10:15 PM 77.2°F25.1°C 76.0°F24.4°C 96% Calm Calm -- 29.92 in1013.2 mb 0.00 in0.0 mm 0.00 in0.0 mm 0.25 in6.4 mm
10:18 PM 77.2°F25.1°C 75.9°F24.4°C 96% 0.4 mph W0.6 kmh W 2.5 mph4.0 kmh 29.91 in1012.9 mb 0.00 in0.0 mm 0.00 in0.0 mm 0.25 in6.4 mm
10:21 PM 77.2°F25.1°C 76.0°F24.4°C 96% 0.5 mph W0.8 kmh W 2.5 mph4.0 kmh 29.91 in1012.9 mb 0.00 in0.0 mm 0.00 in0.0 mm 0.25 in6.4 mm
10:24 PM 77.1°F25.1°C 75.9°F24.4°C 96% Calm Calm -- 29.91 in1012.9 mb 0.00 in0.0 mm 0.00 in0.0 mm 0.25 in6.4 mm
10:27 PM 77.0°F25.0°C 75.8°F24.3°C 96% 0.5 mph NW0.8 kmh NW 2.5 mph4.0 kmh 29.91 in1012.9 mb 0.00 in0.0 mm 0.00 in0.0 mm 0.25 in6.4 mm
10:30 PM 77.2°F25.1°C 76.0°F24.4°C 96% 0.3 mph W0.5 kmh W 2.5 mph4.0 kmh 29.91 in1012.9 mb 0.00 in0.0 mm 0.00 in0.0 mm 0.25 in6.4 mm
10:33 PM 77.1°F25.1°C 75.9°F24.4°C 96% Calm Calm -- 29.92 in1013.2 mb 0.00 in0.0 mm 0.00 in0.0 mm 0.25 in6.4 mm
10:36 PM 77.0°F25.0°C 75.8°F24.3°C 96% 0.4 mph W0.6 kmh W 2.5 mph4.0 kmh 29.92 in1013.2 mb 0.00 in0.0 mm 0.00 in0.0 mm 0.25 in6.4 mm
10:39 PM 77.0°F25.0°C 75.8°F24.3°C 96% 0.5 mph W0.8 kmh W 2.5 mph4.0 kmh 29.92 in1013.2 mb 0.00 in0.0 mm 0.00 in0.0 mm 0.25 in6.4 mm
10:42 PM 77.0°F25.0°C 75.8°F24.3°C 96% 0.1 mph W0.2 kmh W 2.5 mph4.0 kmh 29.92 in1013.2 mb 0.00 in0.0 mm 0.00 in0.0 mm 0.25 in6.4 mm
10:45 PM 76.7°F24.8°C 75.8°F24.3°C 97% 2.8 mph NW4.5 kmh NW 7.6 mph12.2 kmh 29.92 in1013.2 mb 0.00 in0.0 mm 0.00 in0.0 mm 0.25 in6.4 mm
10:48 PM 76.5°F24.7°C 75.5°F24.2°C 97% 1.8 mph NW2.9 kmh NW 4.9 mph7.9 kmh 29.93 in1013.5 mb 0.00 in0.0 mm 0.00 in0.0 mm 0.25 in6.4 mm
10:51 PM 76.3°F24.6°C 75.4°F24.1°C 97% 1.5 mph W2.4 kmh W 4.9 mph7.9 kmh 29.93 in1013.5 mb 0.00 in0.0 mm 0.00 in0.0 mm 0.25 in6.4 mm
10:54 PM 75.7°F24.3°C 74.8°F23.8°C 97% 0.5 mph W0.8 kmh W 2.5 mph4.0 kmh 29.93 in1013.5 mb 0.00 in0.0 mm 0.00 in0.0 mm 0.25 in6.4 mm
10:57 PM 74.5°F23.6°C 73.6°F23.1°C 97% 1.6 mph W2.6 kmh W 4.9 mph7.9 kmh 29.94 in1013.9 mb 0.00 in0.0 mm 0.00 in0.0 mm 0.25 in6.4 mm
11:00 PM 74.7°F23.7°C 73.8°F23.2°C 97% 2.6 mph W4.2 kmh W 4.9 mph7.9 kmh 29.93 in1013.5 mb 0.00 in0.0 mm 0.00 in0.0 mm 0.24 in6.1 mm
11:03 PM 74.5°F23.6°C 73.6°F23.1°C 97% 2.8 mph WNW4.5 kmh WNW 7.6 mph12.2 kmh 29.94 in1013.9 mb 0.00 in0.0 mm 0.00 in0.0 mm 0.24 in6.1 mm
11:06 PM 74.3°F23.5°C 73.4°F23.0°C 97% 3.2 mph NW5.1 kmh NW 7.6 mph12.2 kmh 29.94 in1013.9 mb 0.00 in0.0 mm 0.00 in0.0 mm 0.24 in6.1 mm
11:09 PM 74.1°F23.4°C 73.2°F22.9°C 97% 4.6 mph NW7.4 kmh NW 10.1 mph16.3 kmh 29.94 in1013.9 mb 0.00 in0.0 mm 0.00 in0.0 mm 0.24 in6.1 mm
11:12 PM 74.0°F23.3°C 72.7°F22.6°C 96% 5.0 mph WNW8.0 kmh WNW 7.6 mph12.2 kmh 29.94 in1013.9 mb 0.00 in0.0 mm 0.00 in0.0 mm 0.24 in6.1 mm
11:15 PM 73.8°F23.2°C 72.5°F22.5°C 96% 2.9 mph NNW4.7 kmh NNW 4.9 mph7.9 kmh 29.94 in1013.9 mb 0.00 in0.0 mm 0.00 in0.0 mm 0.24 in6.1 mm
11:18 PM 73.5°F23.1°C 72.0°F22.2°C 95% 3.1 mph NW5.0 kmh NW 7.6 mph12.2 kmh 29.94 in1013.9 mb 0.00 in0.0 mm 0.00 in0.0 mm 0.24 in6.1 mm
11:21 PM 73.3°F22.9°C 71.3°F21.8°C 94% 3.4 mph NW5.5 kmh NW 10.1 mph16.3 kmh 29.94 in1013.9 mb 0.00 in0.0 mm 0.00 in0.0 mm 0.24 in6.1 mm
11:24 PM 73.0°F22.8°C 70.2°F21.2°C 91% 1.6 mph NW2.6 kmh NW 2.5 mph4.0 kmh 29.95 in1014.2 mb 0.00 in0.0 mm 0.00 in0.0 mm 0.24 in6.1 mm
11:27 PM 73.0°F22.8°C 69.8°F21.0°C 90% 2.9 mph NW4.7 kmh NW 4.9 mph7.9 kmh 29.95 in1014.2 mb 0.00 in0.0 mm 0.00 in0.0 mm 0.24 in6.1 mm
11:30 PM 72.9°F22.7°C 69.5°F20.8°C 89% 4.2 mph NW6.8 kmh NW 7.6 mph12.2 kmh 29.95 in1014.2 mb 0.00 in0.0 mm 0.00 in0.0 mm 0.24 in6.1 mm
11:33 PM 72.7°F22.6°C 68.9°F20.5°C 88% 2.9 mph NW4.7 kmh NW 4.9 mph7.9 kmh 29.95 in1014.2 mb 0.00 in0.0 mm 0.00 in0.0 mm 0.24 in6.1 mm
11:36 PM 72.4°F22.4°C 68.6°F20.3°C 88% 1.8 mph W2.9 kmh W 4.9 mph7.9 kmh 29.95 in1014.2 mb 0.00 in0.0 mm 0.00 in0.0 mm 0.24 in6.1 mm
11:39 PM 72.3°F22.4°C 68.1°F20.1°C 87% 1.2 mph NW1.9 kmh NW 4.9 mph7.9 kmh 29.96 in1014.6 mb 0.00 in0.0 mm 0.00 in0.0 mm 0.24 in6.1 mm
11:42 PM 72.1°F22.3°C 67.7°F19.8°C 86% 1.1 mph N1.8 kmh N 4.9 mph7.9 kmh 29.96 in1014.6 mb 0.00 in0.0 mm 0.00 in0.0 mm 0.24 in6.1 mm
11:45 PM 72.1°F22.3°C 67.7°F19.8°C 86% 0.8 mph W1.3 kmh W 2.5 mph4.0 kmh 29.96 in1014.6 mb 0.00 in0.0 mm 0.00 in0.0 mm 0.24 in6.1 mm
11:48 PM 72.0°F22.2°C 67.6°F19.8°C 86% 1.7 mph W2.7 kmh W 4.9 mph7.9 kmh 29.96 in1014.6 mb 0.00 in0.0 mm 0.00 in0.0 mm 0.24 in6.1 mm
11:51 PM 72.0°F22.2°C 67.6°F19.8°C 86% 1.1 mph NW1.8 kmh NW 2.5 mph4.0 kmh 29.96 in1014.6 mb 0.00 in0.0 mm 0.00 in0.0 mm 0.24 in6.1 mm
11:54 PM 72.1°F22.3°C 67.7°F19.8°C 86% 1.7 mph WNW2.7 kmh WNW 4.9 mph7.9 kmh 29.96 in1014.6 mb 0.00 in0.0 mm 0.00 in0.0 mm 0.24 in6.1 mm
11:57 PM 72.1°F22.3°C 67.3°F19.6°C 85% 4.6 mph NNW7.4 kmh NNW 10.1 mph16.3 kmh 29.96 in1014.6 mb 0.00 in0.0 mm 0.00 in0.0 mm 0.24 in6.1 mm